M I D A S
Marine Information and Data Acquisition System
Tripno 675 of the Zeeleeuw from 2004-03-24 07:31:20 to 2004-03-24 15:50:46
Back to CruiseResearch ActivitiesStationsMapUnderway DataData graphs

EquipmentUnitsComment
TimeDGPSUTC
LatitudeDGPSDM.mWGS84
LongitudeDGPSDM.mWGS84
TemperatureSBE03/SBE38deg celciusITS90
ConductivitySBE21S/mITS90
SalinitySBE21 Practical Salinity Units
ChlorophylAChelsea fluorimeterg/lCalibrated in Aceton
Missing or incorrect values are displayed as -999
Sea surface data collected by the RV Zeeleeuw from 2004-03-24 07:31:20 to 2004-03-24 15:50:46
                                                                                    Next 1000 lines
Time Latitude Longitude Temperature Conductivity Salinity ChlorophylA
2004-03-24 07:31:28 51°13.595 2°56.098 14.716766 0.008404 0.050659 4.645965
2004-03-24 07:31:34 51°13.595 2°56.097 14.712135 0.008404 0.050659 4.612255
2004-03-24 07:31:39 51°13.595 2°56.097 14.708902 0.008404 0.050659 4.645965
2004-03-24 07:31:44 51°13.595 2°56.097 14.709339 0.008404 0.050659 4.645965
2004-03-24 07:31:49 51°13.595 2°56.097 14.70663 0.008404 0.05066 4.645965
2004-03-24 07:31:54 51°13.595 2°56.096 14.70663 0.008404 0.05066 4.645965
2004-03-24 07:31:58 51°13.595 2°56.096 14.71148 0.008404 0.05066 4.645965
2004-03-24 07:32:04 51°13.595 2°56.096 14.724848 0.008404 0.05066 4.612255
2004-03-24 07:32:09 51°13.595 2°56.096 14.712135 0.008404 0.05066 4.645965
2004-03-24 07:32:14 51°13.594 2°56.096 14.727075 0.008404 0.05066 4.645965
2004-03-24 07:32:18 51°13.594 2°56.096 14.699989 0.008404 0.05066 4.645965
2004-03-24 07:32:24 51°13.594 2°56.096 14.699989 0.008404 0.05066 4.645965
2004-03-24 07:32:29 51°13.594 2°56.096 14.703834 0.008404 0.05066 4.645965
2004-03-24 07:32:34 51°13.594 2°56.097 14.722183 0.008404 0.05066 4.645965
2004-03-24 07:32:39 51°13.593 2°56.098 14.719125 0.008404 0.05066 4.645965
2004-03-24 07:32:44 51°13.592 2°56.1 14.728298 0.008404 0.050661 4.645965
2004-03-24 07:32:48 51°13.591 2°56.101 14.714276 0.008404 0.050661 4.645965
2004-03-24 07:32:54 51°13.59 2°56.103 14.714276 0.008404 0.050661 4.645965
2004-03-24 07:32:58 51°13.589 2°56.106 14.716679 0.008404 0.050662 4.645965
2004-03-24 07:33:04 51°13.587 2°56.109 14.719562 0.008404 0.050661 4.645965
2004-03-24 07:33:09 51°13.586 2°56.113 14.722139 0.008404 0.050662 4.645965
2004-03-24 07:33:14 51°13.584 2°56.117 14.7276 0.008404 0.050662 4.645965
2004-03-24 07:33:18 51°13.583 2°56.12 14.722882 0.008404 0.050662 4.645965
2004-03-24 07:33:24 51°13.581 2°56.126 14.722882 0.008404 0.050662 4.645965
2004-03-24 07:33:29 51°13.579 2°56.13 14.723974 0.008404 0.050662 4.645965
2004-03-24 07:33:34 51°13.577 2°56.136 14.727075 0.008404 0.050662 4.645965
2004-03-24 07:33:38 51°13.576 2°56.141 14.765546 0.008404 0.050662 4.612255
2004-03-24 07:33:44 51°13.573 2°56.148 14.684868 0.008404 0.050662 4.645965
2004-03-24 07:33:49 51°13.572 2°56.154 14.700819 0.008404 0.050662 4.612255
2004-03-24 07:33:54 51°13.57 2°56.161 14.700819 0.008404 0.050662 4.612255
2004-03-24 07:33:58 51°13.568 2°56.166 14.697105 0.008404 0.050662 4.612255
2004-03-24 07:34:04 51°13.566 2°56.174 14.711524 0.008404 0.050663 4.645965
2004-03-24 07:34:08 51°13.564 2°56.179 14.713621 0.008404 0.050662 4.645965
2004-03-24 07:34:14 51°13.562 2°56.187 14.685742 0.008404 0.050664 4.645965
2004-03-24 07:34:18 51°13.56 2°56.192 14.699989 0.008404 0.050664 4.612255
2004-03-24 07:34:24 51°13.558 2°56.199 14.699989 0.008404 0.050664 4.612255
2004-03-24 07:34:29 51°13.555 2°56.206 14.769824 0.008404 0.050664 4.645965
2004-03-24 07:34:34 51°13.552 2°56.212 14.660081 0.008404 0.050664 4.645965
2004-03-24 07:34:39 51°13.549 2°56.217 14.643815 0.008404 0.050665 4.645965
2004-03-24 07:34:44 51°13.545 2°56.223 14.569558 0.008404 0.050665 4.645965
2004-03-24 07:34:49 51°13.541 2°56.227 14.58186 0.008404 0.050665 4.645965
2004-03-24 07:34:54 51°13.536 2°56.231 14.58186 0.008404 0.050665 4.645965
2004-03-24 07:34:58 51°13.533 2°56.234 14.577526 0.008404 0.050665 4.645965
2004-03-24 07:35:04 51°13.527 2°56.237 14.555634 0.008404 0.050667 4.612255
2004-03-24 07:35:09 51°13.523 2°56.239 14.629337 0.0083 0.050091 4.645965
2004-03-24 07:35:14 51°13.519 2°56.24 14.6093 0.008404 0.050668 4.645965
2004-03-24 07:35:18 51°13.517 2°56.241 14.604749 0.008404 0.050668 4.645965
2004-03-24 07:35:24 51°13.514 2°56.241 14.604749 0.008404 0.050668 4.645965
2004-03-24 07:35:28 51°13.514 2°56.241 14.663842 0.008404 0.05067 4.645965
2004-03-24 07:35:34 51°13.513 2°56.241 14.689632 0.008404 0.050668 4.645965
2004-03-24 07:35:38 51°13.514 2°56.241 14.000456 0.008404 0.050655 4.612255
2004-03-24 07:35:44 51°13.516 2°56.242 13.034493 0.008404 0.050639 4.645965
2004-03-24 07:35:49 51°13.518 2°56.242 13.067632 0.008404 0.050639 4.612255
2004-03-24 07:35:54 51°13.52 2°56.243 13.067632 0.008404 0.050639 4.612255
2004-03-24 07:35:58 51°13.522 2°56.244 12.112964 0.008404 0.050671 8.28658
2004-03-24 07:36:04 51°13.525 2°56.246 10.854914 2.852196 19.877528 32.422512
2004-03-24 07:36:10 51°13.528 2°56.247 9.947757 3.349538 23.420891 26.691913
2004-03-24 07:36:14 51°13.53 2°56.248 9.408359 3.373585 25.321933 26.388529
2004-03-24 07:36:20 51°13.531 2°56.248 9.178498 3.371086 27.083894 25.984016
2004-03-24 07:36:24 51°13.532 2°56.249 9.178498 3.371086 27.083894 25.984016
2004-03-24 07:36:30 51°13.533 2°56.248 9.003709 3.299378 27.63396 33.872016
2004-03-24 07:36:34 51°13.533 2°56.248 8.893552 3.031938 25.967572 32.085418
2004-03-24 07:36:40 51°13.533 2°56.247 8.826966 2.903426 25.40841 34.984426
2004-03-24 07:36:45 51°13.533 2°56.245 8.772693 2.842287 25.226245 40.37793
2004-03-24 07:36:50 51°13.532 2°56.244 8.752089 2.824295 25.285145 36.400221
2004-03-24 07:36:54 51°13.531 2°56.242 8.752089 2.824295 25.285145 36.400221
2004-03-24 07:37:00 51°13.53 2°56.24 8.723396 2.817983 25.368315 36.669896
2004-03-24 07:37:05 51°13.53 2°56.237 8.750225 2.810935 25.427728 33.770888
2004-03-24 07:37:09 51°13.529 2°56.236 8.690957 2.801781 25.409966 33.467503
2004-03-24 07:37:14 51°13.529 2°56.236 8.655917 2.794732 25.407372 28.073999
2004-03-24 07:37:20 51°13.529 2°56.237 8.693111 2.78179 25.307638 25.916597
2004-03-24 07:37:24 51°13.53 2°56.238 8.693111 2.78179 25.307638 25.916597
2004-03-24 07:37:30 51°13.53 2°56.241 8.661088 2.77674 25.279835 25.950306
2004-03-24 07:37:34 51°13.531 2°56.243 8.627372 2.769164 25.233097 31.849452
2004-03-24 07:37:38 51°13.532 2°56.244 8.586545 2.769165 25.264099 36.703606
2004-03-24 07:37:45 51°13.532 2°56.244 8.593016 2.770322 25.280998 27.500939
2004-03-24 07:37:50 51°13.532 2°56.242 8.575951 2.762536 25.220931 36.029418
2004-03-24 07:37:54 51°13.532 2°56.239 8.575951 2.762536 25.220931 36.029418
2004-03-24 07:38:00 51°13.532 2°56.233 8.534659 2.753277 25.154766 37.950853
2004-03-24 07:38:04 51°13.532 2°56.228 8.566745 2.764957 25.291036 34.950717
2004-03-24 07:38:10 51°13.533 2°56.221 8.539361 2.806941 25.73451 40.310512
2004-03-24 07:38:15 51°13.534 2°56.214 8.534468 2.854927 26.231159 33.0967
2004-03-24 07:38:18 51°13.535 2°56.21 8.476202 2.904601 26.751493 30.2314
2004-03-24 07:38:24 51°13.537 2°56.2 8.476202 2.904601 26.751493 30.2314
2004-03-24 07:38:29 51°13.539 2°56.191 8.479563 2.937755 27.097267 25.410956
2004-03-24 07:38:34 51°13.542 2°56.182 8.444984 2.969753 27.435217 30.029144
2004-03-24 07:38:39 51°13.546 2°56.172 8.436529 2.98628 27.619216 38.72617
2004-03-24 07:38:44 51°13.55 2°56.161 8.436529 3.003859 27.81627 36.164255
2004-03-24 07:38:49 51°13.554 2°56.15 8.458722 3.011965 27.920024 28.309965
2004-03-24 07:38:54 51°13.558 2°56.139 8.458722 3.011965 27.920024 28.309965
2004-03-24 07:38:59 51°13.563 2°56.126 8.487437 3.041336 28.236003 31.512358
2004-03-24 07:39:04 51°13.568 2°56.114 8.505725 3.056706 28.408289 43.378067
2004-03-24 07:39:09 51°13.572 2°56.1 8.491806 3.063234 28.48465 35.591195
2004-03-24 07:39:14 51°13.576 2°56.087 8.504142 3.045126 28.297386 32.48993
2004-03-24 07:39:20 51°13.582 2°56.071 8.502798 2.991228 27.737742 35.726033
2004-03-24 07:39:24 51°13.586 2°56.06 8.502798 2.991228 27.737742 35.726033
2004-03-24 07:39:29 51°13.592 2°56.047 8.50275 2.93544 27.161141 30.332529
2004-03-24 07:39:34 51°13.597 2°56.034 8.497854 2.892815 26.720292 29.658341
2004-03-24 07:39:38 51°13.602 2°56.024 8.499966 2.867135 26.456489 35.422648
2004-03-24 07:39:44 51°13.608 2°56.009 8.508941 2.85356 26.315398 28.680768
2004-03-24 07:39:49 51°13.614 2°55.996 8.49843 2.836091 26.136736 26.388529
2004-03-24 07:39:54 51°13.619 2°55.983 8.49843 2.836091 26.136736 26.388529
2004-03-24 07:39:59 51°13.624 2°55.971 8.48134 2.81778 25.95274 35.726033
2004-03-24 07:40:04 51°13.629 2°55.959 8.484893 2.819254 25.970722 24.804187
2004-03-24 07:40:09 51°13.634 2°55.946 8.472841 2.809362 25.870383 37.108118
2004-03-24 07:40:14 51°13.639 2°55.934 8.458098 2.800839 25.785166 28.781896
2004-03-24 07:40:18 51°13.643 2°55.924 8.475866 2.78937 25.673125 33.400084
2004-03-24 07:40:24 51°13.649 2°55.91 8.475866 2.78937 25.673125 33.400084
2004-03-24 07:40:29 51°13.653 2°55.898 8.484652 2.801786 25.803821 33.63605
2004-03-24 07:40:34 51°13.658 2°55.886 8.466742 2.811572 25.911584 34.78217
2004-03-24 07:40:38 51°13.662 2°55.876 8.469864 2.817044 25.971996 36.130546
2004-03-24 07:40:44 51°13.668 2°55.862 8.475674 2.816834 25.970467 33.703469
2004-03-24 07:40:49 51°13.673 2°55.85 8.473465 2.805469 25.853277 34.074272
2004-03-24 07:40:54 51°13.678 2°55.838 8.473465 2.805469 25.853277 34.074272
2004-03-24 07:41:00 51°13.685 2°55.824 8.467799 2.779689 25.594807 34.647332
2004-03-24 07:41:04 51°13.689 2°55.815 8.470056 2.776428 25.564138 34.883298
2004-03-24 07:41:08 51°13.694 2°55.805 8.459586 2.768431 25.484886 36.703606
2004-03-24 07:41:14 51°13.701 2°55.79 8.443543 2.790632 25.708176 41.220665
2004-03-24 07:41:19 51°13.707 2°55.778 8.450797 2.803154 25.835833 36.872153
2004-03-24 07:41:24 51°13.714 2°55.766 8.450797 2.803154 25.835833 36.872153
2004-03-24 07:41:29 51°13.721 2°55.754 8.459346 2.81052 25.908788 38.186819
2004-03-24 07:41:34 51°13.728 2°55.742 8.442294 2.81294 25.941259 32.48993
2004-03-24 07:41:38 51°13.733 2°55.733 8.462276 2.814624 25.964443 33.501212
2004-03-24 07:41:44 51°13.742 2°55.72 8.440228 2.818939 26.010721 34.849589
2004-03-24 07:41:48 51°13.748 2°55.712 8.463188 2.826515 26.088349 30.568494
2004-03-24 07:41:54 51°13.758 2°55.7 8.463188 2.826515 26.088349 30.568494
2004-03-24 07:41:59 51°13.766 2°55.69 8.437201 2.832092 26.147513 32.793315
2004-03-24 07:42:04 51°13.774 2°55.681 8.443159 2.83083 26.133444 30.501076
2004-03-24 07:42:09 51°13.783 2°55.671 8.447626 2.828094 26.108681 34.377657
2004-03-24 07:42:14 51°13.791 2°55.662 8.419422 2.829567 26.124276 34.310238
2004-03-24 07:42:18 51°13.798 2°55.655 8.404041 2.810205 25.930481 41.928563
2004-03-24 07:42:24 51°13.809 2°55.644 8.404041 2.810205 25.930481 41.928563
2004-03-24 07:42:29 51°13.818 2°55.636 8.415048 2.786529 25.694836 35.388939
2004-03-24 07:42:34 51°13.827 2°55.628 8.393225 2.762223 25.448212 36.197965
2004-03-24 07:42:39 51°13.837 2°55.621 8.385003 2.741812 25.249611 34.107982
2004-03-24 07:42:44 51°13.846 2°55.614 8.376443 2.756121 25.398842 36.669896
2004-03-24 07:42:48 51°13.854 2°55.608 8.384666 2.751176 25.345123 40.37793
2004-03-24 07:42:54 51°13.866 2°55.601 8.384666 2.751176 25.345123 40.37793
2004-03-24 07:42:58 51°13.873 2°55.595 8.383079 2.738445 25.225552 34.478785
2004-03-24 07:43:04 51°13.885 2°55.587 8.379473 2.767379 25.526836 32.658477
2004-03-24 07:43:09 51°13.895 2°55.58 8.387167 2.776323 25.6297 33.770888
2004-03-24 07:43:14 51°13.905 2°55.573 8.364179 2.790318 25.777423 36.130546
2004-03-24 07:43:18 51°13.913 2°55.567 8.365622 2.796105 25.835693 33.130409
2004-03-24 07:43:24 51°13.925 2°55.559 8.365622 2.796105 25.835693 33.130409
2004-03-24 07:43:29 51°13.935 2°55.551 8.355232 2.794737 25.823596 35.860871
2004-03-24 07:43:34 51°13.946 2°55.544 8.352394 2.798315 25.86243 34.276529
2004-03-24 07:43:38 51°13.954 2°55.538 8.347005 2.8443 26.334055 26.86046
2004-03-24 07:43:44 51°13.967 2°55.528 8.352057 2.87945 26.699825 30.366238
2004-03-24 07:43:49 51°13.978 2°55.52 8.34306 2.921338 27.133491 32.388802
2004-03-24 07:43:54 51°13.988 2°55.512 8.34306 2.921338 27.133491 32.388802
2004-03-24 07:44:00 51°14.001 2°55.503 8.337815 2.952809 27.458679 36.197965
2004-03-24 07:44:04 51°14.01 2°55.497 8.330164 2.975019 27.692521 33.804597
2004-03-24 07:44:08 51°14.019 2°55.491 8.330452 2.984598 27.792903 34.512494
2004-03-24 07:44:14 51°14.032 2°55.481 8.32126 2.996493 27.914534 36.332802
2004-03-24 07:44:19 51°14.043 2°55.473 8.324725 3.00344 27.992577 36.737315
2004-03-24 07:44:24 51°14.054 2°55.465 8.324725 3.00344 27.992577 36.737315
2004-03-24 07:44:29 51°14.066 2°55.457 8.314328 3.012914 28.093385 33.804597
2004-03-24 07:44:34 51°14.077 2°55.449 8.307781 3.02502 28.220045 34.917007
2004-03-24 07:44:38 51°14.086 2°55.442 8.316061 3.044075 28.421775 37.344084
2004-03-24 07:44:44 51°14.1 2°55.431 8.307252 3.053866 28.525453 33.602341
2004-03-24 07:44:48 51°14.11 2°55.424 8.313318 3.067236 28.668183 36.46764
2004-03-24 07:44:54 51°14.124 2°55.414 8.313318 3.067236 28.668183 36.46764
2004-03-24 07:44:59 51°14.136 2°55.405 8.30263 3.071868 28.722114 34.411366
2004-03-24 07:45:04 51°14.148 2°55.395 8.287896 3.081554 28.824918 32.827024
2004-03-24 07:45:09 51°14.16 2°55.385 8.291941 3.087134 28.884646 34.579913
2004-03-24 07:45:14 51°14.172 2°55.374 8.283658 3.084397 28.857704 29.69205
2004-03-24 07:45:18 51°14.181 2°55.366 8.28934 3.093135 28.950119 37.445212
2004-03-24 07:45:24 51°14.194 2°55.352 8.28934 3.093135 28.950119 37.445212
2004-03-24 07:45:29 51°14.205 2°55.34 8.279853 3.095978 28.985676 38.72617
2004-03-24 07:45:34 51°14.216 2°55.328 8.275904 3.096926 29.000952 29.422375
2004-03-24 07:45:39 51°14.227 2°55.314 8.290881 3.103769 29.076596 34.074272
2004-03-24 07:45:44 51°14.238 2°55.299 8.282117 3.110087 29.142709 29.826888
2004-03-24 07:45:48 51°14.247 2°55.286 8.285632 3.113982 29.186508 35.726033
2004-03-24 07:45:54 51°14.259 2°55.267 8.285632 3.113982 29.186508 35.726033
2004-03-24 07:45:58 51°14.267 2°55.253 8.290592 3.10956 29.142068 30.029144
2004-03-24 07:46:04 51°14.279 2°55.232 8.291748 3.106296 29.108257 38.591332
2004-03-24 07:46:09 51°14.289 2°55.213 8.289533 3.086187 28.901417 33.872016
2004-03-24 07:46:14 51°14.299 2°55.195 8.285777 3.056287 28.591523 45.838853
2004-03-24 07:46:20 51°14.311 2°55.171 8.288088 3.021021 28.226693 35.961999
2004-03-24 07:46:24 51°14.319 2°55.155 8.288088 3.021021 28.226693 35.961999
2004-03-24 07:46:29 51°14.329 2°55.136 8.308311 3.017336 28.188019 31.141554
2004-03-24 07:46:34 51°14.34 2°55.116 8.295215 3.002493 28.033643 33.568631
2004-03-24 07:46:38 51°14.348 2°55.099 8.289244 2.993125 27.935121 31.714614
2004-03-24 07:46:44 51°14.36 2°55.074 8.285103 2.978914 27.788114 26.961589
2004-03-24 07:46:49 51°14.371 2°55.054 8.289148 2.962178 27.615879 27.029007
2004-03-24 07:46:54 51°14.382 2°55.033 8.289148 2.962178 27.615879 27.029007
2004-03-24 07:46:59 51°14.394 2°55.013 8.302149 2.943126 27.415461 36.771024
2004-03-24 07:47:04 51°14.408 2°54.994 8.310718 2.941442 27.402032 30.501076
2004-03-24 07:47:09 51°14.422 2°54.976 8.274988 2.945652 27.445303 31.074136
2004-03-24 07:47:14 51°14.437 2°54.96 8.265306 2.955336 27.546809 32.48993
2004-03-24 07:47:18 51°14.449 2°54.947 8.233841 2.964178 27.635802 29.894306
2004-03-24 07:47:24 51°14.467 2°54.927 8.233841 2.964178 27.635802 29.894306
2004-03-24 07:47:29 51°14.482 2°54.911 8.190015 2.988177 27.878898 32.557349
2004-03-24 07:47:34 51°14.498 2°54.896 8.15528 3.031337 28.327144 35.591195
2004-03-24 07:47:38 51°14.511 2°54.884 8.127865 3.081239 28.852936 33.06299
2004-03-24 07:47:44 51°14.529 2°54.867 8.087879 3.141569 29.487836 37.58005
2004-03-24 07:47:49 51°14.545 2°54.851 8.06232 3.176317 29.879865 31.883161
2004-03-24 07:47:54 51°14.56 2°54.835 8.06232 3.176317 29.879865 31.883161
2004-03-24 07:47:59 51°14.576 2°54.82 8.040425 3.232866 30.498756 32.725896
2004-03-24 07:48:04 51°14.592 2°54.806 8.027806 3.251717 30.719742 33.534922
2004-03-24 07:48:09 51°14.608 2°54.793 8.019876 3.285524 31.103204 39.366648
2004-03-24 07:48:14 51°14.625 2°54.782 8.01799 3.310275 31.396475 29.69205
2004-03-24 07:48:18 51°14.639 2°54.774 8.026307 3.337554 31.705261 35.388939
2004-03-24 07:48:24 51°14.659 2°54.762 8.026307 3.337554 31.705261 35.388939
2004-03-24 07:48:29 51°14.676 2°54.753 8.024276 3.365467 32.017711 37.782306
2004-03-24 07:48:34 51°14.693 2°54.744 8.026114 3.379687 32.180828 35.557486
2004-03-24 07:48:38 51°14.707 2°54.736 8.029643 3.400228 32.409479 28.647059
2004-03-24 07:48:44 51°14.727 2°54.724 8.002223 3.415292 32.570413 32.017999
2004-03-24 07:48:48 51°14.741 2°54.716 7.997289 3.439415 32.825114 34.141691
2004-03-24 07:48:54 51°14.761 2°54.703 7.997289 3.439415 32.825114 34.141691
2004-03-24 07:48:58 51°14.774 2°54.695 7.994386 3.426879 32.694656 33.467503
2004-03-24 07:49:04 51°14.794 2°54.683 7.986984 3.457851 33.022903 30.80446
2004-03-24 07:49:09 51°14.811 2°54.674 7.982678 3.465436 33.106517 37.276665
2004-03-24 07:49:14 51°14.828 2°54.666 7.977936 3.472495 33.188539 37.681178
2004-03-24 07:49:18 51°14.842 2°54.66 7.993903 3.477973 33.258593 36.231674
2004-03-24 07:49:24 51°14.862 2°54.65 7.993903 3.477973 33.258593 36.231674
2004-03-24 07:49:29 51°14.879 2°54.642 7.980065 3.47555 33.238402 27.163845
2004-03-24 07:49:34 51°14.896 2°54.633 7.974887 3.476919 33.254537 33.63605
2004-03-24 07:49:39 51°14.913 2°54.623 7.976726 3.483662 33.332542 34.74846
2004-03-24 07:49:44 51°14.93 2°54.614 7.970532 3.486085 33.355914 34.950717
2004-03-24 07:49:49 51°14.947 2°54.605 7.960223 3.48008 33.299236 31.546067
2004-03-24 07:49:54 51°14.964 2°54.597 7.960223 3.48008 33.299236 31.546067
2004-03-24 07:49:58 51°14.977 2°54.591 7.964966 3.493144 33.441329 33.433794
2004-03-24 07:50:04 51°14.997 2°54.583 7.971839 3.479132 33.29154 29.961725
2004-03-24 07:50:09 51°15.014 2°54.576 7.966564 3.493144 33.443723 30.534785
2004-03-24 07:50:14 51°15.03 2°54.567 7.952962 3.492512 33.445778 34.242819
2004-03-24 07:50:18 51°15.043 2°54.559 7.950542 3.495357 33.478444 29.725759
2004-03-24 07:50:24 51°15.062 2°54.546 7.950542 3.495357 33.478444 29.725759
2004-03-24 07:50:28 51°15.075 2°54.538 7.954657 3.492091 33.442092 32.456221
2004-03-24 07:50:34 51°15.093 2°54.527 7.955237 3.498201 33.507918 32.995571
2004-03-24 07:50:38 51°15.106 2°54.519 7.948654 3.467017 33.18179 30.770751
2004-03-24 07:50:44 51°15.125 2°54.509 7.940472 3.497042 33.507582 33.130409
2004-03-24 07:50:49 51°15.141 2°54.501 7.960659 3.496832 33.506138 29.220118
2004-03-24 07:50:54 51°15.157 2°54.494 7.960659 3.496832 33.506138 29.220118
2004-03-24 07:50:58 51°15.171 2°54.489 7.955721 3.488719 33.422178 40.479059
2004-03-24 07:51:04 51°15.19 2°54.48 7.966757 3.501362 33.55678 31.579777
2004-03-24 07:51:09 51°15.207 2°54.473 7.938632 3.502626 33.571848 33.770888
2004-03-24 07:51:14 51°15.223 2°54.465 7.927398 3.503048 33.577941 34.445076
2004-03-24 07:51:19 51°15.24 2°54.456 7.920763 3.503785 33.58339 29.017862
2004-03-24 07:51:24 51°15.256 2°54.447 7.920763 3.503785 33.58339 29.017862
2004-03-24 07:51:29 51°15.273 2°54.439 7.926139 3.501467 33.552293 31.95058
2004-03-24 07:51:34 51°15.289 2°54.43 7.924105 3.496832 33.507739 34.006853
2004-03-24 07:51:38 51°15.303 2°54.423 7.925654 3.506946 33.625892 27.399811
2004-03-24 07:51:44 51°15.323 2°54.414 7.921635 3.507683 33.641788 35.456358
2004-03-24 07:51:48 51°15.336 2°54.407 7.920521 3.499255 33.555979 33.602341
2004-03-24 07:51:54 51°15.357 2°54.399 7.920521 3.499255 33.555979 33.602341
2004-03-24 07:51:58 51°15.371 2°54.395 7.932482 3.487245 33.430431 33.905725
2004-03-24 07:52:04 51°15.392 2°54.39 7.927979 3.507684 33.646612 32.287674
2004-03-24 07:52:08 51°15.405 2°54.388 7.92517 3.504523 33.616135 31.916871
2004-03-24 07:52:14 51°15.426 2°54.387 7.912674 3.498307 33.556301 30.26511
2004-03-24 07:52:20 51°15.447 2°54.386 7.912965 3.500414 33.577156 30.399947
2004-03-24 07:52:24 51°15.461 2°54.385 7.912965 3.500414 33.577156 30.399947
2004-03-24 07:52:29 51°15.479 2°54.384 7.915629 3.501784 33.592558 35.995708
2004-03-24 07:52:34 51°15.496 2°54.382 7.905602 3.512109 33.702648 40.883571
2004-03-24 07:52:38 51°15.51 2°54.379 7.918729 3.513268 33.719846 28.377383
2004-03-24 07:52:44 51°15.532 2°54.375 7.907346 3.509685 33.681638 30.905589
2004-03-24 07:52:49 51°15.549 2°54.371 7.909913 3.509896 33.686302 33.366375
2004-03-24 07:52:54 51°15.567 2°54.365 7.909913 3.509896 33.686302 33.366375
2004-03-24 07:52:58 51°15.581 2°54.36 7.914273 3.510423 33.691921 33.905725
2004-03-24 07:53:04 51°15.602 2°54.352 7.897608 3.510528 33.69385 38.321657
2004-03-24 07:53:09 51°15.619 2°54.346 7.903761 3.501573 33.598345 36.029418
2004-03-24 07:53:14 51°15.637 2°54.34 7.905166 3.514848 33.743159 33.568631
2004-03-24 07:53:18 51°15.651 2°54.336 7.909768 3.514743 33.745264 40.108255
2004-03-24 07:53:24 51°15.672 2°54.333 7.909768 3.514743 33.745264 40.108255
2004-03-24 07:53:28 51°15.687 2°54.332 7.920424 3.512846 33.729869 36.029418
2004-03-24 07:53:34 51°15.708 2°54.331 7.91713 3.50505 33.646683 34.006853
2004-03-24 07:53:39 51°15.726 2°54.333 7.913933 3.51095 33.709632 30.871879
2004-03-24 07:53:44 51°15.744 2°54.335 7.915532 3.514111 33.740132 30.096563
2004-03-24 07:53:48 51°15.758 2°54.338 7.895088 3.509896 33.691942 36.703606
2004-03-24 07:53:54 51°15.779 2°54.34 7.895088 3.509896 33.691942 36.703606
2004-03-24 07:53:58 51°15.793 2°54.342 7.893247 3.498307 33.565128 27.366101
2004-03-24 07:54:04 51°15.815 2°54.343 7.900563 3.518641 33.783633 31.444939
2004-03-24 07:54:09 51°15.833 2°54.344 7.874154 3.510212 33.69209 30.871879
2004-03-24 07:54:14 51°15.851 2°54.345 7.879534 3.514005 33.739008 33.029281
2004-03-24 07:54:18 51°15.866 2°54.345 7.873378 3.518641 33.794141 37.714888
2004-03-24 07:54:24 51°15.887 2°54.346 7.873378 3.518641 33.794141 37.714888
2004-03-24 07:54:29 51°15.905 2°54.346 7.868919 3.517693 33.788869 31.208973
2004-03-24 07:54:34 51°15.923 2°54.346 7.869646 3.498834 33.598064 29.658341
2004-03-24 07:54:38 51°15.938 2°54.345 7.859079 3.505577 33.671636 34.849589
2004-03-24 07:54:44 51°15.959 2°54.34 7.848364 3.515797 33.78641 37.377794
2004-03-24 07:54:48 51°15.972 2°54.335 7.840363 3.514954 33.782261 28.478512
2004-03-24 07:54:54 51°15.992 2°54.324 7.840363 3.514954 33.782261 28.478512
2004-03-24 07:55:00 51°16.012 2°54.312 7.834932 3.515481 33.791125 39.467777
2004-03-24 07:55:04 51°16.024 2°54.304 7.834592 3.519379 33.836828 28.343674
2004-03-24 07:55:09 51°16.039 2°54.294 7.827463 3.499361 33.63025 30.534785
2004-03-24 07:55:14 51°16.054 2°54.285 7.824698 3.51664 33.822949 30.096563
2004-03-24 07:55:18 51°16.067 2°54.278 7.818634 3.509054 33.750766 34.445076
2004-03-24 07:55:24 51°16.084 2°54.268 7.818634 3.509054 33.750766 34.445076
2004-03-24 07:55:28 51°16.096 2°54.263 7.831682 3.518642 33.854086 28.883024
2004-03-24 07:55:34 51°16.114 2°54.254 7.830276 3.516535 33.836419 29.11899
2004-03-24 07:55:38 51°16.125 2°54.25 7.846133 3.517799 33.856435 30.332529
2004-03-24 07:55:44 51°16.142 2°54.244 7.851176 3.51822 33.862568 30.467366
2004-03-24 07:55:49 51°16.155 2°54.24 7.876189 3.522329 33.905718 34.343947
2004-03-24 07:55:54 51°16.167 2°54.238 7.876189 3.522329 33.905718 34.343947
2004-03-24 07:55:58 51°16.176 2°54.237 7.867368 3.51959 33.871535 30.534785
2004-03-24 07:56:04 51°16.188 2°54.24 7.865817 3.52254 33.897404 33.501212
2004-03-24 07:56:09 51°16.197 2°54.243 7.86858 3.518009 33.840835 33.0967
2004-03-24 07:56:14 51°16.204 2°54.247 7.86795 3.522329 33.878094 27.197554
2004-03-24 07:56:18 51°16.21 2°54.25 7.859951 3.506841 33.706918 34.040563
2004-03-24 07:56:24 51°16.218 2°54.255 7.859951 3.506841 33.706918 34.040563
2004-03-24 07:56:28 51°16.223 2°54.259 7.855297 3.505788 33.691629 28.849315
2004-03-24 07:56:34 51°16.23 2°54.264 7.858739 3.5257 33.901957 32.692187
2004-03-24 07:56:38 51°16.233 2°54.268 7.864557 3.517693 33.815574 30.83817
2004-03-24 07:56:44 51°16.239 2°54.274 7.847297 3.521802 33.865159 36.400221
2004-03-24 07:56:49 51°16.243 2°54.279 7.846958 3.524963 33.902195 33.467503
2004-03-24 07:56:54 51°16.246 2°54.284 7.846958 3.524963 33.902195 33.467503
2004-03-24 07:56:59 51°16.249 2°54.289 7.854861 3.510634 33.749053 32.759606
2004-03-24 07:57:04 51°16.251 2°54.292 7.842545 3.526017 33.917522 35.152973
2004-03-24 07:57:09 51°16.253 2°54.296 7.848606 3.519379 33.84899 28.613349
2004-03-24 07:57:14 51°16.254 2°54.298 7.840024 3.51822 33.841466 32.928153
2004-03-24 07:57:19 51°16.255 2°54.3 7.83789 3.526227 33.927905 28.815606
2004-03-24 07:57:24 51°16.255 2°54.301 7.83789 3.526227 33.927905 28.815606
2004-03-24 07:57:29 51°16.254 2°54.301 7.837308 3.520117 33.865801 35.557486
2004-03-24 07:57:34 51°16.253 2°54.299 7.840557 3.526438 33.934226 32.928153
2004-03-24 07:57:38 51°16.252 2°54.297 7.837405 3.522856 33.896722 37.883435
2004-03-24 07:57:44 51°16.251 2°54.294 7.853212 3.516745 33.835428 33.770888
2004-03-24 07:57:49 51°16.249 2°54.291 7.845649 3.525806 33.933971 32.827024
2004-03-24 07:57:54 51°16.248 2°54.288 7.845649 3.525806 33.933971 32.827024
2004-03-24 07:57:59 51°16.247 2°54.286 7.838035 3.526228 33.939294 34.107982
2004-03-24 07:58:04 51°16.245 2°54.283 7.838229 3.517588 33.846876 39.29923
2004-03-24 07:58:09 51°16.244 2°54.281 7.837744 3.526438 33.939921 34.1754
2004-03-24 07:58:14 51°16.243 2°54.278 7.83629 3.519379 33.861973 28.815606
2004-03-24 07:58:20 51°16.241 2°54.275 7.828869 3.524436 33.920944 31.310101
2004-03-24 07:58:25 51°16.24 2°54.272 7.828869 3.524436 33.920944 31.310101
2004-03-24 07:58:30 51°16.239 2°54.27 7.830858 3.524331 33.92063 35.388939
2004-03-24 07:58:34 51°16.238 2°54.268 7.829839 3.522224 33.8989 33.63605
2004-03-24 07:58:40 51°16.236 2°54.266 7.835126 3.524858 33.92708 32.961862
2004-03-24 07:58:44 51°16.235 2°54.264 7.835417 3.526333 33.946119 32.591059
2004-03-24 07:58:49 51°16.234 2°54.263 7.829791 3.515165 33.829071 34.141691
2004-03-24 07:58:54 51°16.232 2°54.261 7.829791 3.515165 33.829071 34.141691
2004-03-24 07:58:58 51°16.232 2°54.26 7.830567 3.525174 33.935344 29.590922
2004-03-24 07:59:04 51°16.23 2°54.259 7.832895 3.524858 33.931148 36.838443
2004-03-24 07:59:09 51°16.228 2°54.258 7.844048 3.526122 33.94305 31.883161
2004-03-24 07:59:14 51°16.227 2°54.257 7.831634 3.519801 33.877038 35.928289
2004-03-24 07:59:18 51°16.226 2°54.256 7.834447 3.525174 33.935344 29.624631
2004-03-24 07:59:24 51°16.224 2°54.255 7.834447 3.525174 33.935344 29.624631
2004-03-24 07:59:29 51°16.223 2°54.255 7.839005 3.524015 33.925383 36.535059
2004-03-24 07:59:34 51°16.221 2°54.255 7.830276 3.513585 33.811356 29.388665
2004-03-24 07:59:40 51°16.22 2°54.254 7.834495 3.524437 33.924198 37.816016
2004-03-24 07:59:44 51°16.219 2°54.254 7.843176 3.525701 33.939354 29.489794
2004-03-24 07:59:49 51°16.217 2°54.254 7.834107 3.52391 33.919375 35.051845
2004-03-24 07:59:54 51°16.216 2°54.253 7.834107 3.52391 33.919375 35.051845
2004-03-24 07:59:59 51°16.215 2°54.253 7.832604 3.519063 33.870773 32.658477
2004-03-24 08:00:04 51°16.213 2°54.253 7.833525 3.52549 33.938727 32.321383
2004-03-24 08:00:09 51°16.212 2°54.253 7.83338 3.525701 33.936912 36.905862
2004-03-24 08:00:14 51°16.211 2°54.253 7.832167 3.524226 33.922757 33.06299
2004-03-24 08:00:19 51°16.21 2°54.252 7.829306 3.526228 33.944991 29.894306
2004-03-24 08:00:24 51°16.208 2°54.252 7.829306 3.526228 33.944991 29.894306
2004-03-24 08:00:29 51°16.208 2°54.252 7.837599 3.525806 33.939667 34.613623
2004-03-24 08:00:34 51°16.206 2°54.252 7.838132 3.526754 33.951443 34.141691
2004-03-24 08:00:38 51°16.205 2°54.252 7.839587 3.522751 33.909414 34.647332
2004-03-24 08:00:44 51°16.204 2°54.252 7.830955 3.518326 33.863695 32.321383
2004-03-24 08:00:49 51°16.203 2°54.252 7.835708 3.513163 33.806849 31.310101
2004-03-24 08:00:54 51°16.202 2°54.252 7.835708 3.513163 33.806849 31.310101
2004-03-24 08:00:58 51°16.201 2°54.252 7.83401 3.52412 33.922443 32.692187
2004-03-24 08:01:04 51°16.2 2°54.253 7.833186 3.524015 33.921316 32.995571
2004-03-24 08:01:08 51°16.199 2°54.253 7.831537 3.524963 33.932276 34.20911
2004-03-24 08:01:14 51°16.198 2°54.253 7.829645 3.522224 33.905404 27.163845
2004-03-24 08:01:18 51°16.197 2°54.254 7.833283 3.524542 33.929393 32.928153
2004-03-24 08:01:24 51°16.197 2°54.254 7.833283 3.524542 33.929393 32.928153
2004-03-24 08:01:28 51°16.196 2°54.254 7.842497 3.52117 33.891692 34.512494
2004-03-24 08:01:34 51°16.195 2°54.254 7.829209 3.526438 33.949689 33.130409
2004-03-24 08:01:38 51°16.194 2°54.255 7.831003 3.523594 33.91762 33.501212
2004-03-24 08:01:44 51°16.194 2°54.255 7.835271 3.526438 33.948874 35.860871
2004-03-24 08:01:49 51°16.193 2°54.255 7.829015 3.522224 33.902964 36.063127
2004-03-24 08:01:54 51°16.192 2°54.255 7.830567 3.518326 33.863695 32.557349
2004-03-24 08:01:58 51°16.192 2°54.256 7.830567 3.518326 33.863695 32.557349
2004-03-24 08:02:04 51°16.192 2°54.256 7.829403 3.524331 33.92958 32.52364
2004-03-24 08:02:09 51°16.191 2°54.256 7.834447 3.523172 33.916364 31.647195
2004-03-24 08:02:14 51°16.191 2°54.256 7.830567 3.519801 33.881101 28.478512
2004-03-24 08:02:18 51°16.19 2°54.257 7.830906 3.526649 33.953572 35.119264
2004-03-24 08:02:24 51°16.19 2°54.257 7.830906 3.526649 33.953572 35.119264
2004-03-24 08:02:29 51°16.19 2°54.257 7.835514 3.503471 33.705628 36.46764
2004-03-24 08:02:34 51°16.19 2°54.257 7.832313 3.526649 33.955201 26.388529
2004-03-24 08:02:38 51°16.189 2°54.258 7.82853 3.525912 33.948122 37.175537
2004-03-24 08:02:44 51°16.189 2°54.257 7.834156 3.514849 33.828935 30.501076
2004-03-24 08:02:49 51°16.189 2°54.257 7.827317 3.524647 33.932148 39.973418
2004-03-24 08:02:54 51°16.189 2°54.258 7.827317 3.524647 33.932148 39.973418
2004-03-24 08:02:58 51°16.19 2°54.257 7.831634 3.524753 33.930021 35.658614
2004-03-24 08:03:04 51°16.189 2°54.258 7.827608 3.525069 33.935031 34.512494
2004-03-24 08:03:09 51°16.19 2°54.258 7.829694 3.526122 33.947934 33.973144
2004-03-24 08:03:14 51°16.19 2°54.258 7.821448 3.511688 33.793505 32.860734
2004-03-24 08:03:18 51°16.19 2°54.258 7.823291 3.49736 33.641113 26.927879
2004-03-24 08:03:24 51°16.19 2°54.258 7.823291 3.49736 33.641113 26.927879
2004-03-24 08:03:29 51°16.19 2°54.258 7.82625 3.513163 33.810092 29.11899
2004-03-24 08:03:34 51°16.191 2°54.258 7.824213 3.523804 33.925569 28.411093
2004-03-24 08:03:40 51°16.191 2°54.258 7.826396 3.525596 33.946367 33.433794
2004-03-24 08:03:44 51°16.191 2°54.258 7.830082 3.52549 33.946054 34.849589
2004-03-24 08:03:49 51°16.191 2°54.258 7.831779 3.517378 33.857611 32.119127
2004-03-24 08:03:54 51°16.192 2°54.258 7.831779 3.517378 33.857611 32.119127
2004-03-24 08:03:59 51°16.192 2°54.258 7.830761 3.522013 33.908028 32.186546
2004-03-24 08:04:04 51°16.192 2°54.258 7.829548 3.514849 33.832993 33.501212
2004-03-24 08:04:08 51°16.193 2°54.258 7.825959 3.516851 33.854411 38.72617
2004-03-24 08:04:14 51°16.193 2°54.258 7.83047 3.518958 33.876145 36.231674
2004-03-24 08:04:18 51°16.193 2°54.258 7.831003 3.509687 33.775336 35.119264
2004-03-24 08:04:24 51°16.194 2°54.258 7.831003 3.509687 33.775336 35.119264
2004-03-24 08:04:29 51°16.194 2°54.258 7.823 3.520117 33.886921 32.827024
2004-03-24 08:04:34 51°16.195 2°54.258 7.828869 3.524437 33.933149 33.332665
2004-03-24 08:04:38 51°16.195 2°54.258 7.826444 3.519169 33.876775 30.163982
2004-03-24 08:04:44 51°16.195 2°54.258 7.829403 3.525385 33.944112 29.1527
2004-03-24 08:04:48 51°16.196 2°54.258 7.825037 3.526755 33.959587 41.591469
2004-03-24 08:04:54 51°16.196 2°54.258 7.825037 3.526755 33.959587 41.591469
2004-03-24 08:04:58 51°16.196 2°54.258 7.825813 3.525279 33.94217 33.973144
2004-03-24 08:05:04 51°16.197 2°54.258 7.833574 3.518642 33.871951 30.2314
2004-03-24 08:05:09 51°16.197 2°54.258 7.833186 3.517904 33.864059 34.984426
2004-03-24 08:05:14 51°16.197 2°54.258 7.822661 3.521065 33.899507 32.725896
2004-03-24 08:05:18 51°16.197 2°54.258 7.829645 3.521697 33.906272 30.80446
2004-03-24 08:05:24 51°16.197 2°54.258 7.829645 3.521697 33.906272 30.80446
2004-03-24 08:05:29 51°16.197 2°54.258 7.830082 3.522224 33.910283 32.388802
2004-03-24 08:05:34 51°16.197 2°54.258 7.829403 3.521592 33.902705 32.928153
2004-03-24 08:05:38 51°16.197 2°54.258 7.828918 3.526755 33.958772 31.310101
2004-03-24 08:05:44 51°16.197 2°54.258 7.829791 3.514954 33.833308 30.602204
2004-03-24 08:05:48 51°16.197 2°54.258 7.825522 3.52254 33.913666 36.905862
2004-03-24 08:05:54 51°16.199 2°54.259 7.822176 3.526017 33.950878 30.80446
2004-03-24 08:05:58 51°16.2 2°54.261 7.822176 3.526017 33.950878 30.80446
2004-03-24 08:06:04 51°16.202 2°54.263 7.824067 3.526755 33.958772 31.815742
2004-03-24 08:06:08 51°16.205 2°54.264 7.826687 3.52528 33.942984 32.321383
2004-03-24 08:06:14 51°16.209 2°54.267 7.824552 3.522856 33.917862 33.63605
2004-03-24 08:06:19 51°16.213 2°54.269 7.826105 3.525701 33.951567 34.546204
2004-03-24 08:06:24 51°16.218 2°54.27 7.826105 3.525701 33.951567 34.546204
2004-03-24 08:06:28 51°16.223 2°54.27 7.82397 3.524753 33.941417 32.557349
2004-03-24 08:06:34 51°16.232 2°54.269 7.824649 3.525806 33.95351 32.591059
2004-03-24 08:06:39 51°16.239 2°54.267 7.821254 3.52549 33.950126 30.163982
2004-03-24 08:06:44 51°16.248 2°54.262 7.820041 3.52549 33.949311 32.017999
2004-03-24 08:06:49 51°16.257 2°54.255 7.81878 3.525701 33.953196 34.074272
2004-03-24 08:06:54 51°16.266 2°54.247 7.81878 3.525701 33.953196 34.074272
2004-03-24 08:06:58 51°16.274 2°54.239 7.816888 3.521803 33.912281 28.478512
2004-03-24 08:07:04 51°16.284 2°54.224 7.820963 3.525596 33.954512 29.1527
2004-03-24 08:07:08 51°16.291 2°54.213 7.814608 3.521065 33.906014 31.343811
2004-03-24 08:07:14 51°16.302 2°54.193 7.822418 3.500731 33.691696 40.209383
2004-03-24 08:07:18 51°16.308 2°54.179 7.816985 3.521381 33.91428 43.276939
2004-03-24 08:07:24 51°16.319 2°54.156 7.816985 3.521381 33.91428 43.276939
2004-03-24 08:07:29 51°16.329 2°54.135 7.814754 3.515376 33.849997 38.827298
2004-03-24 08:07:34 51°16.339 2°54.114 7.817519 3.524858 33.952319 42.333076
2004-03-24 08:07:38 51°16.347 2°54.096 7.808932 3.523699 33.943168 30.602204
2004-03-24 08:07:44 51°16.361 2°54.07 7.808689 3.525701 33.961345 33.298956
2004-03-24 08:07:48 51°16.37 2°54.052 7.811552 3.523172 33.93427 31.040426
2004-03-24 08:07:54 51°16.384 2°54.024 7.811552 3.523172 33.93427 31.040426
2004-03-24 08:07:58 51°16.393 2°54.006 7.811794 3.51506 33.846614 30.467366
2004-03-24 08:08:04 51°16.407 2°53.979 7.804662 3.518958 33.891592 32.961862
2004-03-24 08:08:09 51°16.419 2°53.955 7.805002 3.522962 33.935271 40.007127
2004-03-24 08:08:14 51°16.431 2°53.931 7.803449 3.525806 33.962473 30.062853
2004-03-24 08:08:18 51°16.441 2°53.913 7.794181 3.515797 33.859383 31.41123
2004-03-24 08:08:24 51°16.455 2°53.884 7.794181 3.515797 33.859383 31.41123
2004-03-24 08:08:28 51°16.465 2°53.865 7.783407 3.52254 33.932387 27.46723
2004-03-24 08:08:34 51°16.479 2°53.836 7.776903 3.517799 33.882438 32.692187
2004-03-24 08:08:38 51°16.489 2°53.817 7.774961 3.522751 33.937088 29.860597
2004-03-24 08:08:44 51°16.503 2°53.788 7.761465 3.524964 33.968121 36.973281
2004-03-24 08:08:49 51°16.516 2°53.764 7.762533 3.516957 33.884801 30.433657
2004-03-24 08:08:54 51°16.528 2°53.74 7.762533 3.516957 33.884801 30.433657
2004-03-24 08:09:00 51°16.541 2°53.709 7.752239 3.520328 33.927427 28.242546
2004-03-24 08:09:04 51°16.549 2°53.689 7.740827 3.509687 33.822392 31.849452
2004-03-24 08:09:09 51°16.56 2°53.662 7.746509 3.520644 33.946304 29.725759
2004-03-24 08:09:14 51°16.57 2°53.635 7.738252 3.522541 33.972345 40.108255
2004-03-24 08:09:18 51°16.577 2°53.613 7.737135 3.520645 33.960993 30.669623
2004-03-24 08:09:24 51°16.588 2°53.58 7.737135 3.520645 33.960993 30.669623
2004-03-24 08:09:29 51°16.596 2°53.551 7.726837 3.518011 33.938462 31.849452
2004-03-24 08:09:34 51°16.603 2°53.523 7.736601 3.518854 33.952399 29.287537
2004-03-24 08:09:38 51°16.609 2°53.499 7.71576 3.521593 33.983415 35.658614
2004-03-24 08:09:44 51°16.617 2°53.464 7.718675 3.520013 33.972182 36.703606
2004-03-24 08:09:49 51°16.624 2°53.434 7.722028 3.52075 33.985817 40.445349
2004-03-24 08:09:54 51°16.63 2°53.405 7.722028 3.52075 33.985817 40.445349
2004-03-24 08:09:58 51°16.635 2°53.381 7.720716 3.520539 33.984374 32.119127
2004-03-24 08:10:04 51°16.644 2°53.345 7.720619 3.520856 33.990219 31.849452
2004-03-24 08:10:08 51°16.649 2°53.321 7.713963 3.517484 33.960578 27.534648
2004-03-24 08:10:14 51°16.657 2°53.286 7.722174 3.5178 33.965605 29.321247
2004-03-24 08:10:18 51°16.663 2°53.263 7.711825 3.516536 33.95367 36.771024
2004-03-24 08:10:24 51°16.672 2°53.228 7.711825 3.516536 33.95367 36.771024
2004-03-24 08:10:28 51°16.679 2°53.206 7.726351 3.520224 33.994886 33.703469
2004-03-24 08:10:34 51°16.688 2°53.171 7.7281 3.520645 34.000229 30.501076
2004-03-24 08:10:38 51°16.694 2°53.149 7.724311 3.49852 33.758768 33.770888
2004-03-24 08:10:44 51°16.704 2°53.114 7.726109 3.519381 33.985021 28.613349
2004-03-24 08:10:48 51°16.71 2°53.092 7.731938 3.520224 33.991614 22.579366
2004-03-24 08:10:54 51°16.72 2°53.058 7.731938 3.520224 33.991614 22.579366
2004-03-24 08:10:59 51°16.728 2°53.03 7.733104 3.519697 33.985141 29.658341
2004-03-24 08:11:04 51°16.736 2°53.001 7.741604 3.520223 33.98916 32.860734
2004-03-24 08:11:09 51°16.744 2°52.973 7.738689 3.508845 33.867879 31.444939
2004-03-24 08:11:14 51°16.752 2°52.945 7.751025 3.511373 33.893375 24.905315
2004-03-24 08:11:18 51°16.758 2°52.923 7.748208 3.518432 33.964215 31.815742
2004-03-24 08:11:24 51°16.768 2°52.89 7.748208 3.518432 33.964215 31.815742
2004-03-24 08:11:29 51°16.776 2°52.862 7.755347 3.520434 33.979155 39.501486
2004-03-24 08:11:34 51°16.784 2°52.835 7.762484 3.520434 33.976703 34.815879
2004-03-24 08:11:38 51°16.791 2°52.814 7.771466 3.518959 33.956795 33.804597
2004-03-24 08:11:44 51°16.8 2°52.782 7.773942 3.50758 33.832335 28.57964
2004-03-24 08:11:48 51°16.807 2°52.761 7.779427 3.518116 33.94204 26.89417
2004-03-24 08:11:54 51°16.818 2°52.73 7.779427 3.518116 33.94204 26.89417
2004-03-24 08:11:58 51°16.825 2°52.709 7.785251 3.516641 33.922144 25.950306
2004-03-24 08:12:04 51°16.837 2°52.679 7.795879 3.520118 33.952895 28.781896
2004-03-24 08:12:08 51°16.845 2°52.659 7.804614 3.514428 33.887017 32.692187
2004-03-24 08:12:14 51°16.859 2°52.632 7.801945 3.510319 33.839731 37.074409
2004-03-24 08:12:20 51°16.873 2°52.605 7.809029 3.517273 33.908541 42.467913
2004-03-24 08:12:24 51°16.884 2°52.589 7.809029 3.517273 33.908541 42.467913
2004-03-24 08:12:28 51°16.894 2°52.573 7.817713 3.522857 33.960227 29.388665
2004-03-24 08:12:34 51°16.911 2°52.551 7.831682 3.522646 33.951444 30.26511
2004-03-24 08:12:38 51°16.923 2°52.536 7.821302 3.523805 33.958152 28.411093
2004-03-24 08:12:44 51°16.94 2°52.514 7.820866 3.521698 33.929063 34.242819
2004-03-24 08:12:49 51°16.955 2°52.496 7.820866 3.521803 33.925305 27.096426
2004-03-24 08:12:54 51°16.969 2°52.479 7.820866 3.521803 33.925305 27.096426
2004-03-24 08:12:58 51°16.981 2°52.465 7.82625 3.524753 33.949562 25.916597
2004-03-24 08:13:04 51°16.999 2°52.445 7.832895 3.522119 33.91892 31.782033
2004-03-24 08:13:09 51°17.014 2°52.43 7.825328 3.515271 33.845621 37.242956
2004-03-24 08:13:14 51°17.03 2°52.414 7.823485 3.524121 33.936278 32.658477
2004-03-24 08:13:18 51°17.042 2°52.401 7.818149 3.524858 33.942545 29.590922
2004-03-24 08:13:24 51°17.06 2°52.381 7.818149 3.524858 33.942545 29.590922
2004-03-24 08:13:29 51°17.074 2°52.364 7.822321 3.525069 33.941543 37.242956
2004-03-24 08:13:34 51°17.089 2°52.346 7.819314 3.524963 33.944487 27.669486
2004-03-24 08:13:38 51°17.101 2°52.331 7.815724 3.525701 33.951567 32.658477
2004-03-24 08:13:44 51°17.118 2°52.309 7.819702 3.510003 33.7852 29.354956
2004-03-24 08:13:49 51°17.133 2°52.292 7.815869 3.526228 33.96128 31.208973
2004-03-24 08:13:54 51°17.149 2°52.275 7.815869 3.526228 33.96128 31.208973
2004-03-24 08:13:58 51°17.162 2°52.263 7.813201 3.523383 33.932454 28.242546
2004-03-24 08:14:04 51°17.181 2°52.245 7.819944 3.524015 33.941665 31.680905
2004-03-24 08:14:09 51°17.197 2°52.232 7.813007 3.509055 33.780729 28.309965
2004-03-24 08:14:14 51°17.214 2°52.218 7.810872 3.526017 33.962284 29.759469
2004-03-24 08:14:19 51°17.23 2°52.206 7.809174 3.52549 33.957458 34.950717
2004-03-24 08:14:24 51°17.247 2°52.193 7.809174 3.52549 33.957458 34.950717
2004-03-24 08:14:29 51°17.264 2°52.181 7.797578 3.525174 33.953259 30.635913
2004-03-24 08:14:34 51°17.28 2°52.168 7.789037 3.524542 33.947305 36.46764
2004-03-24 08:14:38 51°17.294 2°52.158 7.783844 3.526228 33.968616 38.658751
2004-03-24 08:14:44 51°17.314 2°52.142 7.789182 3.51643 33.866962 31.748324
2004-03-24 08:14:49 51°17.33 2°52.128 7.768213 3.518115 33.887449 28.208836
2004-03-24 08:14:54 51°17.347 2°52.115 7.768213 3.518115 33.887449 28.208836
2004-03-24 08:14:58 51°17.36 2°52.104 7.767048 3.522224 33.936334 33.130409
2004-03-24 08:15:04 51°17.379 2°52.086 7.763504 3.523173 33.954642 29.186409
2004-03-24 08:15:08 51°17.391 2°52.073 7.759086 3.525491 33.983556 26.725623
2004-03-24 08:15:14 51°17.41 2°52.053 7.745198 3.520644 33.94141 32.658477
2004-03-24 08:15:19 51°17.425 2°52.036 7.738252 3.520434 33.945676 27.635777
2004-03-24 08:15:24 51°17.44 2°52.018 7.738252 3.520434 33.945676 27.635777
2004-03-24 08:15:28 51°17.452 2°52.004 7.737281 3.520328 33.948626 34.074272
2004-03-24 08:15:34 51°17.47 2°51.982 7.721008 3.518116 33.928987 29.017862
2004-03-24 08:15:40 51°17.488 2°51.961 7.716246 3.517378 33.92842 28.748187
2004-03-24 08:15:44 51°17.499 2°51.946 7.70716 3.523489 34.004577 25.444665
2004-03-24 08:15:48 51°17.511 2°51.93 7.697683 3.517589 33.94537 29.489794
2004-03-24 08:15:54 51°17.528 2°51.907 7.697683 3.517589 33.94537 29.489794
2004-03-24 08:15:58 51°17.539 2°51.892 7.698898 3.520013 33.977903 38.894717
2004-03-24 08:16:04 51°17.556 2°51.868 7.701425 3.521488 34.001093 26.759332
2004-03-24 08:16:08 51°17.567 2°51.852 7.684122 3.510531 33.892489 29.422375
2004-03-24 08:16:14 51°17.584 2°51.828 7.663605 3.518854 33.99082 26.219982
2004-03-24 08:16:18 51°17.596 2°51.813 7.662486 3.515272 33.956448 29.287537
2004-03-24 08:16:24 51°17.613 2°51.79 7.662486 3.515272 33.956448 29.287537
2004-03-24 08:16:29 51°17.627 2°51.771 7.658888 3.521172 34.024722 29.489794
2004-03-24 08:16:34 51°17.641 2°51.752 7.649356 3.51622 33.976448 31.916871
2004-03-24 08:16:39 51°17.656 2°51.732 7.643713 3.517063 33.996147 26.759332
2004-03-24 08:16:44 51°17.67 2°51.713 7.635054 3.515483 33.985719 33.973144
2004-03-24 08:16:48 51°17.681 2°51.697 7.634617 3.497678 33.801795 31.074136
2004-03-24 08:16:54 51°17.698 2°51.674 7.634617 3.497678 33.801795 31.074136
2004-03-24 08:16:58 51°17.709 2°51.658 7.628827 3.516221 34.01086 32.827024
2004-03-24 08:17:04 51°17.726 2°51.634 7.621091 3.519908 34.055438 29.11899
2004-03-24 08:17:09 51°17.74 2°51.615 7.614813 3.517485 34.036766 28.478512
2004-03-24 08:17:14 51°17.754 2°51.595 7.604399 3.51443 34.008006 27.366101
2004-03-24 08:17:18 51°17.765 2°51.579 7.60912 3.514851 34.019927 25.950306
2004-03-24 08:17:24 51°17.782 2°51.556 7.60912 3.514851 34.019927 25.950306
2004-03-24 08:17:28 51°17.793 2°51.54 7.59958 3.516853 34.046395 33.838306
2004-03-24 08:17:34 51°17.811 2°51.517 7.606005 3.517064 34.053595 33.265247
2004-03-24 08:17:38 51°17.822 2°51.501 7.593885 3.516116 34.048322 37.782306
2004-03-24 08:17:44 51°17.839 2°51.478 7.574945 3.515484 34.043983 31.546067
2004-03-24 08:17:49 51°17.853 2°51.458 7.575335 3.508635 33.974378 30.501076
2004-03-24 08:17:54 51°17.868 2°51.438 7.575335 3.508635 33.974378 30.501076
2004-03-24 08:17:58 51°17.879 2°51.423 7.561602 3.508003 33.974139 25.714341
2004-03-24 08:18:04 51°17.896 2°51.399 7.551811 3.515905 34.063326 30.163982
2004-03-24 08:18:09 51°17.909 2°51.379 7.546258 3.503368 33.934901 30.635913
2004-03-24 08:18:14 51°17.922 2°51.36 7.541191 3.488724 33.784647 28.208836
2004-03-24 08:18:18 51°17.933 2°51.344 7.548694 3.514641 34.074409 36.636187
2004-03-24 08:18:24 51°17.949 2°51.321 7.548694 3.514641 34.074409 36.636187
2004-03-24 08:18:29 51°17.961 2°51.303 7.53666 3.512007 34.054259 26.422238
2004-03-24 08:18:34 51°17.974 2°51.285 7.528425 3.504316 33.98124 30.298819
2004-03-24 08:18:38 51°17.984 2°51.271 7.519946 3.513166 34.081588 40.007127
2004-03-24 08:18:44 51°17.998 2°51.251 7.52365 3.512008 34.071564 27.264973
2004-03-24 08:18:49 51°18.01 2°51.234 7.512294 3.499154 33.937924 27.43352
2004-03-24 08:18:54 51°18.021 2°51.218 7.512294 3.499154 33.937924 27.43352
2004-03-24 08:18:59 51°18.033 2°51.203 7.512732 3.506951 34.029388 32.017999
2004-03-24 08:19:04 51°18.044 2°51.187 7.502447 3.513483 34.104803 35.658614
2004-03-24 08:19:09 51°18.055 2°51.172 7.513805 3.501999 33.984215 26.89417
2004-03-24 08:19:14 51°18.066 2°51.157 7.501277 3.508953 34.062523 33.804597
2004-03-24 08:19:19 51°18.076 2°51.142 7.503666 3.505581 34.032742 45.198375
2004-03-24 08:19:24 51°18.087 2°51.127 7.503666 3.505581 34.032742 45.198375
2004-03-24 08:19:28 51°18.095 2°51.115 7.495914 3.510112 34.084934 30.703332
2004-03-24 08:19:34 51°18.108 2°51.097 7.499717 3.497047 33.94561 36.973281
2004-03-24 08:19:38 51°18.116 2°51.085 7.497523 3.511376 34.101885 35.32152
2004-03-24 08:19:44 51°18.128 2°51.067 7.493087 3.50516 34.039738 37.984563
2004-03-24 08:19:49 51°18.138 2°51.051 7.488064 3.495151 33.933374 33.029281
2004-03-24 08:19:54 51°18.148 2°51.037 7.488064 3.495151 33.933374 33.029281
2004-03-24 08:19:59 51°18.158 2°51.022 7.48548 3.501789 34.009119 31.37752
2004-03-24 08:20:04 51°18.168 2°51.006 7.487674 3.493992 33.926625 32.388802
2004-03-24 08:20:09 51°18.179 2°50.991 7.484602 3.502842 34.025439 30.973007
2004-03-24 08:20:14 51°18.19 2°50.976 7.487382 3.483141 33.814475 34.411366
2004-03-24 08:20:19 51°18.201 2°50.96 7.478994 3.504528 34.047766 38.894717
2004-03-24 08:20:24 51°18.213 2°50.945 7.478994 3.504528 34.047766 38.894717
2004-03-24 08:20:28 51°18.223 2°50.933 7.479189 3.507689 34.082725 26.86046
2004-03-24 08:20:34 51°18.239 2°50.917 7.483139 3.503896 34.043416 27.669486
2004-03-24 08:20:39 51°18.252 2°50.905 7.489332 3.507057 34.080029 29.186409
2004-03-24 08:20:44 51°18.267 2°50.894 7.479141 3.510112 34.11386 38.759879
2004-03-24 08:20:48 51°18.278 2°50.885 7.479921 3.50948 34.110339 32.860734
2004-03-24 08:20:54 51°18.295 2°50.872 7.479921 3.50948 34.110339 32.860734
2004-03-24 08:20:58 51°18.307 2°50.865 7.485968 3.500103 34.009882 43.411777
2004-03-24 08:21:04 51°18.325 2°50.859 7.487236 3.494941 33.951668 37.849725
2004-03-24 08:21:09 51°18.34 2°50.857 7.48587 3.491569 33.916096 34.613623
2004-03-24 08:21:14 51°18.354 2°50.858 7.489478 3.494414 33.948451 34.883298
2004-03-24 08:21:18 51°18.365 2°50.86 7.487089 3.505371 34.063474 39.366648
2004-03-24 08:21:24 51°18.38 2°50.863 7.487089 3.505371 34.063474 39.366648
2004-03-24 08:21:29 51°18.391 2°50.867 7.489771 3.504423 34.048279 34.74846
2004-03-24 08:21:34 51°18.401 2°50.871 7.492599 3.485353 33.841623 33.63605
2004-03-24 08:21:38 51°18.409 2°50.874 7.495037 3.500419 34.003401 34.107982
2004-03-24 08:21:44 51°18.419 2°50.88 7.494013 3.485037 33.839033 27.602067
2004-03-24 08:21:48 51°18.425 2°50.884 7.487967 3.504423 34.049104 31.310101
2004-03-24 08:21:54 51°18.434 2°50.892 7.487967 3.504423 34.049104 31.310101
2004-03-24 08:21:58 51°18.438 2°50.898 7.490551 3.50948 34.097936 30.366238
2004-03-24 08:22:04 51°18.444 2°50.906 7.492404 3.509164 34.094523 38.827298
2004-03-24 08:22:09 51°18.448 2°50.912 7.489478 3.509269 34.096487 28.411093
2004-03-24 08:22:14 51°18.452 2°50.919 7.486309 3.508531 34.08687 37.714888
2004-03-24 08:22:18 51°18.455 2°50.924 7.492794 3.500103 33.99834 33.804597
2004-03-24 08:22:24 51°18.459 2°50.932 7.492794 3.500103 33.99834 33.804597
2004-03-24 08:22:28 51°18.461 2°50.937 7.49216 3.50948 34.101243 31.242683
2004-03-24 08:22:34 51°18.465 2°50.944 7.489186 3.509374 34.098451 31.984289
2004-03-24 08:22:38 51°18.467 2°50.949 7.490551 3.509058 34.097518 34.343947
2004-03-24 08:22:44 51°18.47 2°50.955 7.495281 3.508637 34.090486 35.692324
2004-03-24 08:22:49 51°18.472 2°50.96 7.499863 3.506319 34.067107 35.254101
2004-03-24 08:22:54 51°18.475 2°50.965 7.499863 3.506319 34.067107 35.254101
2004-03-24 08:22:58 51°18.477 2°50.969 7.493428 3.509374 34.104239 26.489657
2004-03-24 08:23:04 51°18.479 2°50.974 7.492745 3.508953 34.097206 34.512494
2004-03-24 08:23:09 51°18.481 2°50.978 7.495134 3.50948 34.102069 29.759469
2004-03-24 08:23:14 51°18.483 2°50.982 7.492404 3.502737 34.027601 32.355093
2004-03-24 08:23:18 51°18.485 2°50.984 7.501765 3.506424 34.067419 38.018272
2004-03-24 08:23:24 51°18.487 2°50.989 7.501765 3.506424 34.067419 38.018272
2004-03-24 08:23:28 51°18.488 2°50.991 7.497377 3.50811 34.08645 34.445076
2004-03-24 08:23:34 51°18.49 2°50.995 7.500058 3.508953 34.094726 29.624631
2004-03-24 08:23:38 51°18.491 2°50.997 7.500887 3.509901 34.105794 35.422648
2004-03-24 08:23:44 51°18.493 2°51.001 7.500887 3.503158 34.030501 41.018409
2004-03-24 08:23:49 51°18.494 2°51.003 7.503373 3.509374 34.096798 31.478648
2004-03-24 08:23:54 51°18.495 2°51.005 7.503373 3.509374 34.096798 31.478648
2004-03-24 08:23:58 51°18.496 2°51.007 7.508297 3.510428 34.108177 31.37752
2004-03-24 08:24:04 51°18.497 2°51.009 7.50469 3.507689 34.07529 33.905725
2004-03-24 08:24:08 51°18.498 2°51.011 7.508492 3.510112 34.10063 36.939571
2004-03-24 08:24:14 51°18.498 2°51.012 7.508102 3.509269 34.092355 34.815879
2004-03-24 08:24:18 51°18.498 2°51.013 7.509418 3.510006 34.09536 27.602067
2004-03-24 08:24:24 51°18.499 2°51.014 7.509418 3.510006 34.09536 27.602067
2004-03-24 08:24:28 51°18.498 2°51.015 7.514975 3.510744 34.102497 26.725623
2004-03-24 08:24:34 51°18.499 2°51.015 7.512635 3.50948 34.088846 51.535742
2004-03-24 08:24:38 51°18.499 2°51.015 7.517948 3.510955 34.103946 28.781896
2004-03-24 08:24:44 51°18.499 2°51.016 7.51824 3.50969 34.088643 26.2874
2004-03-24 08:24:48 51°18.498 2°51.017 7.521213 3.511271 34.104053 28.781896
2004-03-24 08:24:54 51°18.498 2°51.017 7.521213 3.511271 34.104053 28.781896
2004-03-24 08:24:58 51°18.498 2°51.018 7.518532 3.502737 34.011112 33.737178
2004-03-24 08:25:04 51°18.498 2°51.018 7.513659 3.511165 34.09961 27.770614
2004-03-24 08:25:08 51°18.497 2°51.018 7.510052 3.510954 34.094857 39.26552
2004-03-24 08:25:14 51°18.497 2°51.019 7.513317 3.508742 34.070151 28.276255
2004-03-24 08:25:18 51°18.497 2°51.019 7.517899 3.510954 34.09238 31.916871
2004-03-24 08:25:24 51°18.496 2°51.02 7.517899 3.510954 34.09238 31.916871
2004-03-24 08:25:29 51°18.496 2°51.019 7.519507 3.51127 34.095791 28.57964
2004-03-24 08:25:34 51°18.496 2°51.02 7.519069 3.510638 34.093097 31.141554
2004-03-24 08:25:40 51°18.495 2°51.02 7.515218 3.494414 33.916377 35.051845
2004-03-24 08:25:44 51°18.495 2°51.02 7.515559 3.510744 34.094235 33.63605
2004-03-24 08:25:49 51°18.495 2°51.02 7.512294 3.510112 34.086585 30.973007
2004-03-24 08:25:54 51°18.495 2°51.02 7.512294 3.510112 34.086585 30.973007
2004-03-24 08:25:59 51°18.494 2°51.02 7.51283 3.51106 34.095995 37.816016
2004-03-24 08:26:04 51°18.494 2°51.02 7.514097 3.511692 34.104471 32.692187
2004-03-24 08:26:09 51°18.494 2°51.02 7.50971 3.50516 34.033141 36.029418
2004-03-24 08:26:14 51°18.494 2°51.019 7.509077 3.503369 34.013813 29.658341
2004-03-24 08:26:20 51°18.493 2°51.019 7.508638 3.507056 34.055258 30.433657
2004-03-24 08:26:24 51°18.493 2°51.019 7.508638 3.507056 34.055258 30.433657
2004-03-24 08:26:29 51°18.493 2°51.019 7.511563 3.511271 34.100748 31.815742
2004-03-24 08:26:34 51°18.492 2°51.018 7.511465 3.511271 34.100748 25.276118
2004-03-24 08:26:38 51°18.492 2°51.018 7.509223 3.510006 34.088751 31.208973
2004-03-24 08:26:44 51°18.492 2°51.018 7.512684 3.510638 34.09888 30.568494
2004-03-24 08:26:48 51°18.492 2°51.018 7.507517 3.511376 34.10519 37.849725
2004-03-24 08:26:54 51°18.491 2°51.017 7.507517 3.511376 34.10519 37.849725
2004-03-24 08:26:58 51°18.491 2°51.017 7.511026 3.511481 34.105501 32.759606
2004-03-24 08:27:04 51°18.49 2°51.017 7.504982 3.510849 34.098677 34.74846
2004-03-24 08:27:09 51°18.49 2°51.017 7.508979 3.510849 34.099503 36.771024
2004-03-24 08:27:14 51°18.49 2°51.016 7.511514 3.509796 34.087303 39.804871
2004-03-24 08:27:19 51°18.489 2°51.016 7.507858 3.51106 34.100951 32.355093
2004-03-24 08:27:24 51°18.489 2°51.015 7.507858 3.51106 34.100951 32.355093
2004-03-24 08:27:29 51°18.488 2°51.015 7.511953 3.508742 34.079232 35.490067
2004-03-24 08:27:34 51°18.488 2°51.015 7.508443 3.511271 34.105706 30.568494
2004-03-24 08:27:39 51°18.488 2°51.015 7.514585 3.510428 34.095779 31.714614
2004-03-24 08:27:44 51°18.487 2°51.015 7.512927 3.510217 34.093504 36.973281
2004-03-24 08:27:49 51°18.487 2°51.014 7.507712 3.511165 34.103742 31.647195
2004-03-24 08:27:54 51°18.486 2°51.014 7.507712 3.511165 34.103742 31.647195
2004-03-24 08:28:00 51°18.486 2°51.014 7.511173 3.505792 34.046562 38.557623
2004-03-24 08:28:04 51°18.485 2°51.013 7.51127 3.509374 34.085231 29.928016
2004-03-24 08:28:09 51°18.485 2°51.013 7.50971 3.510533 34.095264 29.321247
2004-03-24 08:28:14 51°18.484 2°51.013 7.511953 3.510638 34.097228 35.726033
2004-03-24 08:28:18 51°18.484 2°51.013 7.506249 3.510428 34.096605 27.332392
2004-03-24 08:28:24 51°18.483 2°51.012 7.506249 3.510428 34.096605 27.332392
2004-03-24 08:28:29 51°18.482 2°51.012 7.509905 3.510533 34.095264 32.961862
2004-03-24 08:28:34 51°18.482 2°51.011 7.513951 3.510954 34.10064 31.647195
2004-03-24 08:28:39 51°18.481 2°51.011 7.505323 3.509374 34.081927 31.815742
2004-03-24 08:28:44 51°18.481 2°51.011 7.508297 3.508531 34.07448 31.680905
2004-03-24 08:28:48 51°18.481 2°51.01 7.509857 3.510006 34.090403 34.445076
2004-03-24 08:28:54 51°18.48 2°51.01 7.509857 3.510006 34.090403 34.445076
2004-03-24 08:28:58 51°18.48 2°51.01 7.513561 3.511165 34.101263 31.680905
2004-03-24 08:29:04 51°18.479 2°51.009 7.506981 3.510744 34.099192 30.062853
2004-03-24 08:29:09 51°18.478 2°51.009 7.511563 3.511165 34.104568 30.871879
2004-03-24 08:29:14 51°18.478 2°51.009 7.507809 3.510217 34.09433 35.726033
2004-03-24 08:29:18 51°18.477 2°51.009 7.506981 3.510638 34.098054 27.332392
2004-03-24 08:29:24 51°18.477 2°51.009 7.506981 3.510638 34.098054 27.332392
2004-03-24 08:29:28 51°18.476 2°51.008 7.512099 3.510322 34.093816 30.332529
2004-03-24 08:29:34 51°18.475 2°51.008 7.509369 3.51106 34.101778 34.343947
2004-03-24 08:29:39 51°18.475 2°51.008 7.508589 3.510638 34.097228 27.871742
2004-03-24 08:29:44 51°18.474 2°51.008 7.507712 3.510428 34.095779 30.669623
2004-03-24 08:29:49 51°18.474 2°51.007 7.505567 3.510849 34.099503 30.467366
2004-03-24 08:29:54 51°18.473 2°51.007 7.505567 3.510849 34.099503 30.467366
2004-03-24 08:29:58 51°18.473 2°51.007 7.507029 3.510428 34.097432 29.961725
2004-03-24 08:30:04 51°18.472 2°51.006 7.504446 3.510955 34.102293 30.467366
2004-03-24 08:30:08 51°18.471 2°51.006 7.509613 3.51106 34.10591 37.917144
2004-03-24 08:30:14 51°18.471 2°51.006 7.505957 3.510744 34.103323 38.456494
2004-03-24 08:30:18 51°18.47 2°51.006 7.506591 3.510744 34.102497 31.748324
2004-03-24 08:30:24 51°18.47 2°51.006 7.506591 3.510744 34.102497 31.748324
2004-03-24 08:30:29 51°18.469 2°51.005 7.504056 3.510849 34.105288 31.714614
2004-03-24 08:30:34 51°18.468 2°51.005 7.501813 3.510006 34.094534 37.411503
2004-03-24 08:30:38 51°18.468 2°51.004 7.505128 3.510744 34.101671 31.782033
2004-03-24 08:30:44 51°18.467 2°51.004 7.502642 3.510428 34.099084 26.961589
2004-03-24 08:30:48 51°18.467 2°51.004 7.504153 3.510849 34.103635 32.321383
2004-03-24 08:30:54 51°18.466 2°51.003 7.504153 3.510849 34.103635 32.321383
2004-03-24 08:30:59 51°18.465 2°51.003 7.505713 3.510217 34.097635 27.096426
2004-03-24 08:31:04 51°18.465 2°51.003 7.504202 3.510533 34.102701 33.905725
2004-03-24 08:31:08 51°18.464 2°51.003 7.50196 3.510322 34.101252 38.861007
2004-03-24 08:31:14 51°18.463 2°51.003 7.505908 3.510533 34.102701 33.939435
2004-03-24 08:31:19 51°18.462 2°51.003 7.500741 3.510217 34.097635 36.973281
2004-03-24 08:31:24 51°18.462 2°51.002 7.50352 3.510428 34.099911 30.871879
2004-03-24 08:31:28 51°18.461 2°51.002 7.50352 3.510428 34.099911 30.871879
2004-03-24 08:31:34 51°18.461 2°51.001 7.501765 3.510428 34.101564 36.029418
2004-03-24 08:31:39 51°18.46 2°51.001 7.501521 3.510849 34.106114 35.085554
2004-03-24 08:31:44 51°18.459 2°51 7.502155 3.509796 34.094738 35.35523
2004-03-24 08:31:49 51°18.459 2°51 7.50352 3.509585 34.092462 35.591195
2004-03-24 08:31:54 51°18.458 2°50.999 7.50352 3.509585 34.092462 35.591195
2004-03-24 08:31:58 51°18.458 2°50.999 7.503861 3.510217 34.100115 35.220392
2004-03-24 08:32:04 51°18.457 2°50.998 7.500838 3.510006 34.097839 33.602341
2004-03-24 08:32:09 51°18.456 2°50.997 7.501667 3.510638 34.103839 28.444802
2004-03-24 08:32:14 51°18.455 2°50.997 7.503373 3.510428 34.099911 32.591059
2004-03-24 08:32:18 51°18.455 2°50.996 7.505762 3.510006 34.097013 31.006717
2004-03-24 08:32:24 51°18.454 2°50.996 7.505762 3.510006 34.097013 31.006717
2004-03-24 08:32:28 51°18.453 2°50.994 7.50118 3.510849 34.106114 35.422648
2004-03-24 08:32:34 51°18.453 2°50.994 7.504153 3.510112 34.099803 32.287674
2004-03-24 08:32:39 51°18.452 2°50.993 7.504933 3.510112 34.098977 36.501349
2004-03-24 08:32:44 51°18.451 2°50.992 7.502886 3.509585 34.091636 31.242683
2004-03-24 08:32:49 51°18.451 2°50.991 7.504202 3.510006 34.099492 34.20911
2004-03-24 08:32:54 51°18.45 2°50.991 7.504202 3.510006 34.099492 34.20911
2004-03-24 08:32:58 51°18.449 2°50.99 7.501375 3.510428 34.100737 31.748324
2004-03-24 08:33:04 51°18.449 2°50.988 7.502593 3.50969 34.092774 33.467503
2004-03-24 08:33:08 51°18.448 2°50.988 7.501375 3.510322 34.099599 38.018272
2004-03-24 08:33:14 51°18.447 2°50.987 7.504007 3.510006 34.097013 30.635913
2004-03-24 08:33:18 51°18.447 2°50.986 7.506688 3.510217 34.100115 28.950443
2004-03-24 08:33:24 51°18.446 2°50.985 7.506688 3.510217 34.100115 28.950443
2004-03-24 08:33:29 51°18.445 2°50.984 7.506249 3.510112 34.099803 34.883298
2004-03-24 08:33:34 51°18.445 2°50.983 7.501375 3.510006 34.097839 27.635777
2004-03-24 08:33:39 51°18.444 2°50.982 7.502935 3.509796 34.095564 32.186546
2004-03-24 08:33:44 51°18.443 2°50.981 7.504056 3.510428 34.10239 30.197691
2004-03-24 08:33:50 51°18.442 2°50.979 7.502398 3.510849 34.105288 40.007127
2004-03-24 08:33:54 51°18.442 2°50.979 7.502398 3.510849 34.105288 40.007127
2004-03-24 08:33:58 51°18.441 2°50.977 7.505275 3.50969 34.092774 32.085418
2004-03-24 08:34:04 51°18.44 2°50.976 7.503812 3.50969 34.092774 26.017725
2004-03-24 08:34:08 51°18.439 2°50.975 7.506542 3.510533 34.098569 33.872016
2004-03-24 08:34:14 51°18.438 2°50.974 7.508736 3.510217 34.098462 29.725759
2004-03-24 08:34:18 51°18.438 2°50.973 7.504543 3.510849 34.104461 31.849452
2004-03-24 08:34:24 51°18.437 2°50.971 7.504543 3.510849 34.104461 31.849452
2004-03-24 08:34:29 51°18.436 2°50.97 7.505177 3.510322 34.098773 34.78217
2004-03-24 08:34:34 51°18.435 2°50.968 7.506688 3.510006 34.096187 28.073999
2004-03-24 08:34:39 51°18.434 2°50.967 7.507224 3.510428 34.098258 28.680768
2004-03-24 08:34:44 51°18.433 2°50.966 7.510393 3.510322 34.097947 33.804597
2004-03-24 08:34:49 51°18.433 2°50.964 7.513805 3.510217 34.098462 41.52405
2004-03-24 08:34:54 51°18.432 2°50.963 7.513805 3.510217 34.098462 41.52405
2004-03-24 08:34:58 51°18.431 2°50.961 7.509418 3.510638 34.100533 27.130136
2004-03-24 08:35:04 51°18.43 2°50.959 7.513317 3.510322 34.09712 33.872016
2004-03-24 08:35:09 51°18.429 2°50.958 7.51746 3.510533 34.098569 31.748324
2004-03-24 08:35:14 51°18.429 2°50.957 7.516827 3.510006 34.091229 38.018272
2004-03-24 08:35:18 51°18.428 2°50.955 7.517606 3.510744 34.100844 38.557623
2004-03-24 08:35:24 51°18.427 2°50.953 7.517606 3.510744 34.100844 38.557623
2004-03-24 08:35:29 51°18.426 2°50.952 7.518727 3.510112 34.090715 29.928016
2004-03-24 08:35:34 51°18.426 2°50.95 7.519166 3.510638 34.096402 31.546067
2004-03-24 08:35:38 51°18.426 2°50.948 7.518971 3.511165 34.097958 35.658614
2004-03-24 08:35:44 51°18.427 2°50.946 7.522236 3.511481 34.100544 31.175264
2004-03-24 08:35:49 51°18.43 2°50.943 7.520043 3.511376 34.09858 26.152563
2004-03-24 08:35:54 51°18.434 2°50.94 7.520043 3.511376 34.09858 26.152563
2004-03-24 08:36:00 51°18.44 2°50.936 7.522577 3.511376 34.09858 30.2314
2004-03-24 08:36:04 51°18.445 2°50.933 7.523162 3.511692 34.101166 33.770888
2004-03-24 08:36:08 51°18.45 2°50.931 7.520336 3.511165 34.094654 35.827161
2004-03-24 08:36:14 51°18.46 2°50.931 7.52594 3.511587 34.098377 30.905589
2004-03-24 08:36:18 51°18.467 2°50.933 7.526232 3.511692 34.097862 29.1527
2004-03-24 08:36:24 51°18.477 2°50.938 7.526232 3.511692 34.097862 29.1527
2004-03-24 08:36:28 51°18.484 2°50.944 7.527061 3.511797 34.097347 32.085418
2004-03-24 08:36:34 51°18.494 2°50.957 7.525843 3.511586 34.093422 28.073999
2004-03-24 08:36:38 51°18.5 2°50.967 7.519361 3.512429 34.101692 28.680768
2004-03-24 08:36:44 51°18.509 2°50.984 7.520189 3.512535 34.101177 28.781896
2004-03-24 08:36:49 51°18.517 2°50.999 7.511465 3.51264 34.101488 31.074136
2004-03-24 08:36:54 51°18.525 2°51.015 7.511465 3.51264 34.101488 31.074136
2004-03-24 08:36:58 51°18.531 2°51.028 7.519702 3.512429 34.096737 40.344221
2004-03-24 08:37:04 51°18.541 2°51.05 7.520189 3.512745 34.103451 29.759469
2004-03-24 08:37:09 51°18.549 2°51.068 7.514975 3.512745 34.107581 33.703469
2004-03-24 08:37:14 51°18.556 2°51.087 7.517899 3.511481 34.09724 32.793315
2004-03-24 08:37:18 51°18.562 2°51.103 7.517996 3.511797 34.100651 37.344084
2004-03-24 08:37:24 51°18.571 2°51.127 7.517996 3.511797 34.100651 37.344084
2004-03-24 08:37:28 51°18.576 2°51.145 7.51902 3.511481 34.095588 34.681042
2004-03-24 08:37:34 51°18.585 2°51.171 7.519166 3.510954 34.091554 32.456221
2004-03-24 08:37:40 51°18.593 2°51.199 7.515218 3.51127 34.096617 33.0967
2004-03-24 08:37:44 51°18.599 2°51.218 7.517168 3.511165 34.094654 29.590922
2004-03-24 08:37:49 51°18.606 2°51.242 7.515852 3.510744 34.090931 36.164255
2004-03-24 08:37:54 51°18.612 2°51.267 7.515852 3.510744 34.090931 36.164255
2004-03-24 08:37:58 51°18.618 2°51.287 7.524917 3.511165 34.09548 31.916871
2004-03-24 08:38:04 51°18.626 2°51.318 7.520141 3.51127 34.097443 45.973691
2004-03-24 08:38:09 51°18.632 2°51.343 7.519995 3.511481 34.10137 42.0634
2004-03-24 08:38:14 51°18.639 2°51.368 7.523845 3.510954 34.094031 29.051571
2004-03-24 08:38:20 51°18.647 2°51.399 7.524722 3.51106 34.095169 31.883161
2004-03-24 08:38:24 51°18.652 2°51.42 7.524722 3.51106 34.095169 31.883161
2004-03-24 08:38:29 51°18.659 2°51.445 7.519361 3.51106 34.092691 30.2314
2004-03-24 08:38:34 51°18.666 2°51.47 7.523162 3.51127 34.095791 42.366785
2004-03-24 08:38:38 51°18.671 2°51.491 7.522675 3.510849 34.092068 35.186683
2004-03-24 08:38:44 51°18.68 2°51.521 7.518581 3.510849 34.089591 33.973144
2004-03-24 08:38:49 51°18.686 2°51.547 7.529205 3.510638 34.088142 27.871742
2004-03-24 08:38:54 51°18.693 2°51.573 7.529205 3.510638 34.088142 27.871742
2004-03-24 08:38:59 51°18.7 2°51.598 7.516875 3.510638 34.088968 32.557349
2004-03-24 08:39:04 51°18.707 2°51.624 7.520677 3.511797 34.099825 31.748324
2004-03-24 08:39:09 51°18.714 2°51.649 7.523747 3.511376 34.095277 28.849315
2004-03-24 08:39:14 51°18.721 2°51.675 7.516193 3.51127 34.094965 32.152836
2004-03-24 08:39:18 51°18.726 2°51.695 7.515754 3.510954 34.091554 28.647059
2004-03-24 08:39:24 51°18.734 2°51.726 7.515754 3.510954 34.091554 28.647059
2004-03-24 08:39:29 51°18.741 2°51.752 7.517168 3.510638 34.088968 34.1754
2004-03-24 08:39:34 51°18.747 2°51.777 7.517022 3.510954 34.09238 31.748324
2004-03-24 08:39:39 51°18.755 2°51.803 7.514585 3.511165 34.094654 36.299093
2004-03-24 08:39:44 51°18.762 2°51.828 7.515267 3.510954 34.094031 25.646922
2004-03-24 08:39:49 51°18.769 2°51.853 7.515901 3.510849 34.092068 26.422238
2004-03-24 08:39:54 51°18.776 2°51.879 7.515901 3.510849 34.092068 26.422238
2004-03-24 08:39:58 51°18.782 2°51.899 7.519897 3.510849 34.094546 27.669486
2004-03-24 08:40:04 51°18.79 2°51.93 7.511953 3.510954 34.094031 28.073999
2004-03-24 08:40:09 51°18.797 2°51.955 7.513561 3.510638 34.09475 32.961862
2004-03-24 08:40:14 51°18.804 2°51.981 7.511124 3.509901 34.085137 35.860871
2004-03-24 08:40:18 51°18.809 2°52.001 7.509613 3.510428 34.091649 32.928153
2004-03-24 08:40:24 51°18.818 2°52.031 7.509613 3.510428 34.091649 32.928153
2004-03-24 08:40:28 51°18.823 2°52.052 7.512245 3.510322 34.091338 29.354956
2004-03-24 08:40:34 51°18.832 2°52.083 7.509272 3.510849 34.097024 32.725896
2004-03-24 08:40:38 51°18.837 2°52.103 7.510685 3.510849 34.098677 29.1527
2004-03-24 08:40:44 51°18.846 2°52.133 7.513707 3.510638 34.098054 31.748324
2004-03-24 08:40:49 51°18.853 2°52.159 7.51049 3.509901 34.08844 30.062853
2004-03-24 08:40:54 51°18.86 2°52.185 7.51049 3.509901 34.08844 30.062853
2004-03-24 08:40:58 51°18.866 2°52.205 7.516047 3.510322 34.093816 37.00699
2004-03-24 08:41:04 51°18.874 2°52.236 7.516485 3.510428 34.094953 30.197691
2004-03-24 08:41:09 51°18.882 2°52.261 7.517217 3.510006 34.089577 41.186956
2004-03-24 08:41:14 51°18.888 2°52.287 7.511465 3.510006 34.090403 28.343674
2004-03-24 08:41:20 51°18.897 2°52.317 7.517168 3.510112 34.090715 36.905862
2004-03-24 08:41:24 51°18.903 2°52.338 7.517168 3.510112 34.090715 36.905862
2004-03-24 08:41:29 51°18.909 2°52.363 7.51824 3.510428 34.093301 31.074136
2004-03-24 08:41:34 51°18.916 2°52.389 7.516242 3.510217 34.088548 34.714751
2004-03-24 08:41:40 51°18.925 2°52.419 7.517606 3.510428 34.091649 36.46764
2004-03-24 08:41:44 51°18.93 2°52.44 7.518727 3.510533 34.092786 30.602204
2004-03-24 08:41:49 51°18.937 2°52.465 7.515901 3.510006 34.084622 27.332392
2004-03-24 08:41:54 51°18.943 2°52.491 7.515901 3.510006 34.084622 27.332392
2004-03-24 08:42:00 51°18.951 2°52.522 7.518435 3.510638 34.091446 26.826751
2004-03-24 08:42:04 51°18.956 2°52.543 7.521749 3.50969 34.082036 38.220529
2004-03-24 08:42:09 51°18.962 2°52.569 7.521457 3.510006 34.086274 28.478512
2004-03-24 08:42:14 51°18.968 2°52.596 7.522821 3.510322 34.08886 39.231811
2004-03-24 08:42:19 51°18.974 2°52.621 7.522772 3.510638 34.089794 31.849452
2004-03-24 08:42:24 51°18.98 2°52.648 7.522772 3.510638 34.089794 31.849452
2004-03-24 08:42:29 51°18.986 2°52.674 7.532908 3.510217 34.084419 32.017999
2004-03-24 08:42:34 51°18.992 2°52.7 7.533639 3.510112 34.082457 32.321383
2004-03-24 08:42:38 51°18.997 2°52.72 7.532275 3.510006 34.080494 40.276802
2004-03-24 08:42:44 51°19.004 2°52.752 7.531788 3.510744 34.085977 28.54593
2004-03-24 08:42:49 51°19.01 2°52.778 7.533201 3.510217 34.078641 29.69205
2004-03-24 08:42:54 51°19.016 2°52.804 7.533201 3.510217 34.078641 29.69205
2004-03-24 08:42:58 51°19.021 2°52.824 7.535198 3.510849 34.082161 29.422375
2004-03-24 08:43:04 51°19.028 2°52.856 7.534516 3.510849 34.079685 32.995571
2004-03-24 08:43:08 51°19.033 2°52.876 7.542068 3.510849 34.07886 28.613349
2004-03-24 08:43:14 51°19.04 2°52.908 7.538024 3.510322 34.074001 35.692324
2004-03-24 08:43:18 51°19.045 2°52.928 7.538706 3.511165 34.08227 35.051845
2004-03-24 08:43:24 51°19.052 2°52.959 7.538706 3.511165 34.08227 35.051845
2004-03-24 08:43:29 51°19.058 2°52.985 7.540899 3.51127 34.082581 31.984289
2004-03-24 08:43:34 51°19.064 2°53.01 7.542019 3.510954 34.079171 40.37793
2004-03-24 08:43:39 51°19.07 2°53.036 7.548694 3.51106 34.077007 32.388802
2004-03-24 08:43:44 51°19.076 2°53.062 7.544991 3.510427 34.068538 34.276529
2004-03-24 08:43:49 51°19.082 2°53.088 7.547719 3.511481 34.077429 33.737178
2004-03-24 08:43:54 51°19.088 2°53.114 7.547719 3.511481 34.077429 33.737178
2004-03-24 08:43:58 51°19.093 2°53.135 7.551129 3.510954 34.073396 31.647195
2004-03-24 08:44:04 51°19.1 2°53.166 7.549619 3.51106 34.072058 33.872016
2004-03-24 08:44:09 51°19.106 2°53.192 7.554198 3.511586 34.073616 27.197554
2004-03-24 08:44:14 51°19.112 2°53.218 7.551032 3.511165 34.069071 42.535332
2004-03-24 08:44:18 51°19.117 2°53.239 7.555611 3.512008 34.077337 38.793589
2004-03-24 08:44:24 51°19.124 2°53.27 7.555611 3.512008 34.077337 38.793589
2004-03-24 08:44:29 51°19.13 2°53.296 7.556098 3.512218 34.078785 33.298956
2004-03-24 08:44:34 51°19.136 2°53.322 7.560433 3.511797 34.070941 37.512631
2004-03-24 08:44:38 51°19.141 2°53.342 7.557072 3.511797 34.071766 40.479059
2004-03-24 08:44:44 51°19.148 2°53.373 7.556098 3.511586 34.067844 39.198101
2004-03-24 08:44:49 51°19.154 2°53.399 7.555708 3.511902 34.069604 30.130272
2004-03-24 08:44:54 51°19.16 2°53.425 7.555708 3.511902 34.069604 30.130272
2004-03-24 08:44:58 51°19.165 2°53.446 7.558582 3.512324 34.074148 39.703742
2004-03-24 08:45:04 51°19.173 2°53.476 7.556975 3.511481 34.064235 36.400221
2004-03-24 08:45:08 51°19.177 2°53.497 7.558777 3.512113 34.068578 36.265383
2004-03-24 08:45:14 51°19.185 2°53.528 7.56092 3.511691 34.066507 28.478512
2004-03-24 08:45:19 51°19.191 2°53.554 7.567154 3.512429 34.072811 30.602204
2004-03-24 08:45:24 51°19.197 2°53.58 7.567154 3.512429 34.072811 30.602204
2004-03-24 08:45:29 51°19.203 2°53.605 7.562137 3.511902 34.067955 37.411503
2004-03-24 08:45:34 51°19.209 2°53.631 7.561066 3.512113 34.067754 34.647332
2004-03-24 08:45:38 51°19.214 2°53.652 7.563939 3.512218 34.068066 31.680905
2004-03-24 08:45:44 51°19.221 2°53.682 7.574556 3.511797 34.061874 28.781896
2004-03-24 08:45:49 51°19.228 2°53.708 7.589162 3.512218 34.065593 37.276665
2004-03-24 08:45:54 51°19.234 2°53.734 7.589162 3.512218 34.065593 37.276665
2004-03-24 08:45:59 51°19.239 2°53.76 7.602208 3.512007 34.063321 29.69205
2004-03-24 08:46:04 51°19.246 2°53.785 7.610385 3.511902 34.061362 26.219982
2004-03-24 08:46:09 51°19.252 2°53.811 7.618123 3.511691 34.054971 32.051708
2004-03-24 08:46:14 51°19.258 2°53.836 7.625957 3.510848 34.036006 30.366238
2004-03-24 08:46:18 51°19.263 2°53.856 7.630773 3.510532 34.022728 32.827024
2004-03-24 08:46:24 51°19.27 2°53.887 7.630773 3.510532 34.022728 32.827024
2004-03-24 08:46:29 51°19.276 2°53.913 7.63199 3.509689 34.004607 35.692324
2004-03-24 08:46:34 51°19.282 2°53.939 7.639092 3.50832 33.981646 34.107982
2004-03-24 08:46:38 51°19.287 2°53.959 7.641816 3.508635 33.97684 44.018546
2004-03-24 08:46:44 51°19.294 2°53.99 7.649501 3.508846 33.972544 29.590922
2004-03-24 08:46:48 51°19.299 2°54.011 7.64921 3.508214 33.960821 33.400084
2004-03-24 08:46:54 51°19.306 2°54.042 7.64921 3.508214 33.960821 33.400084
2004-03-24 08:46:58 51°19.311 2°54.062 7.654073 3.508214 33.957542 41.557759
2004-03-24 08:47:04 51°19.318 2°54.093 7.652079 3.50695 33.938205 38.861007
2004-03-24 08:47:08 51°19.322 2°54.113 7.655921 3.507371 33.937823 30.433657
2004-03-24 08:47:14 51°19.329 2°54.144 7.663167 3.507792 33.93908 34.74846
2004-03-24 08:47:18 51°19.334 2°54.164 7.671628 3.507266 33.931777 38.389076
2004-03-24 08:47:24 51°19.341 2°54.195 7.671628 3.507266 33.931777 38.389076
2004-03-24 08:47:28 51°19.346 2°54.215 7.676781 3.506633 33.921706 31.074136
2004-03-24 08:47:34 51°19.353 2°54.245 7.688594 3.507055 33.922963 29.456084
2004-03-24 08:47:39 51°19.359 2°54.271 7.697635 3.506106 33.910316 31.141554
2004-03-24 08:47:44 51°19.365 2°54.296 7.70541 3.505053 33.894085 28.141418
2004-03-24 08:47:48 51°19.37 2°54.317 7.709784 3.503894 33.873461 35.523777
2004-03-24 08:47:54 51°19.377 2°54.347 7.709784 3.503894 33.873461 35.523777
2004-03-24 08:47:58 51°19.382 2°54.367 7.715469 3.501997 33.845742 33.433794
2004-03-24 08:48:04 51°19.389 2°54.397 7.721931 3.500417 33.821431 34.006853
2004-03-24 08:48:08 51°19.393 2°54.418 7.725866 3.499363 33.801973 33.366375
2004-03-24 08:48:14 51°19.4 2°54.448 7.72946 3.496729 33.767193 37.175537
2004-03-24 08:48:18 51°19.405 2°54.468 7.732764 3.495992 33.752775 33.872016
2004-03-24 08:48:24 51°19.412 2°54.499 7.732764 3.495992 33.752775 33.872016
2004-03-24 08:48:29 51°19.418 2°54.524 7.741361 3.49262 33.710925 33.973144
2004-03-24 08:48:34 51°19.424 2°54.549 7.744469 3.492094 33.700407 30.501076
2004-03-24 08:48:39 51°19.43 2°54.575 7.747577 3.491145 33.685374 38.69246
2004-03-24 08:48:44 51°19.436 2°54.6 7.752919 3.489038 33.659543 32.860734
2004-03-24 08:48:49 51°19.442 2°54.625 7.756755 3.488195 33.64565 30.568494
2004-03-24 08:48:54 51°19.447 2°54.651 7.756755 3.488195 33.64565 30.568494
2004-03-24 08:48:59 51°19.453 2°54.676 7.762727 3.485456 33.611443 28.377383
2004-03-24 08:49:04 51°19.46 2°54.701 7.762873 3.483981 33.590791 34.984426
2004-03-24 08:49:09 51°19.466 2°54.726 7.765931 3.482612 33.57289 37.310375
2004-03-24 08:49:14 51°19.471 2°54.752 7.765931 3.480399 33.545161 34.377657
2004-03-24 08:49:19 51°19.477 2°54.777 7.768553 3.478924 33.525337 34.74846
2004-03-24 08:49:24 51°19.483 2°54.803 7.768553 3.478924 33.525337 34.74846
2004-03-24 08:49:29 51°19.488 2°54.828 7.771466 3.477555 33.507452 31.849452
2004-03-24 08:49:34 51°19.494 2°54.854 7.770883 3.477765 33.508096 33.467503
2004-03-24 08:49:39 51°19.499 2°54.88 7.774184 3.476712 33.494404 34.714751
2004-03-24 08:49:44 51°19.505 2°54.905 7.774379 3.47608 33.484419 33.265247
2004-03-24 08:49:49 51°19.51 2°54.931 7.775204 3.475131 33.471859 30.770751
2004-03-24 08:49:54 51°19.517 2°54.957 7.775204 3.475131 33.471859 30.770751
2004-03-24 08:49:59 51°19.522 2°54.982 7.776854 3.475553 33.474759 36.939571
2004-03-24 08:50:04 51°19.528 2°55.007 7.778699 3.477028 33.489736 28.444802
2004-03-24 08:50:09 51°19.535 2°55.032 7.780155 3.47629 33.481041 36.096836
2004-03-24 08:50:14 51°19.54 2°55.058 7.785931 3.476606 33.481204 41.355503
2004-03-24 08:50:18 51°19.545 2°55.078 7.785445 3.476395 33.479754 31.613486
2004-03-24 08:50:24 51°19.553 2°55.108 7.785445 3.476395 33.479754 31.613486
2004-03-24 08:50:29 51°19.558 2°55.134 7.787726 3.476395 33.478146 32.321383
2004-03-24 08:50:34 51°19.565 2°55.158 7.791852 3.476395 33.475732 27.163845
2004-03-24 08:50:38 51°19.569 2°55.179 7.795879 3.47629 33.472997 31.444939
2004-03-24 08:50:44 51°19.577 2°55.209 7.802285 3.476711 33.475896 38.389076
2004-03-24 08:50:49 51°19.583 2°55.234 7.802382 3.475974 33.465596 36.838443
2004-03-24 08:50:54 51°19.588 2°55.259 7.802382 3.475974 33.465596 36.838443
2004-03-24 08:50:58 51°19.593 2°55.279 7.801169 3.476185 33.464634 35.827161
2004-03-24 08:51:04 51°19.6 2°55.309 7.80311 3.475552 33.455463 41.861144
2004-03-24 08:51:09 51°19.606 2°55.335 7.803692 3.474815 33.444364 27.46723
2004-03-24 08:51:14 51°19.612 2°55.36 7.806021 3.474394 33.435844 31.242683
2004-03-24 08:51:19 51°19.617 2°55.385 7.809466 3.473445 33.424103 33.265247
2004-03-24 08:51:24 51°19.624 2°55.41 7.809466 3.473445 33.424103 33.265247
2004-03-24 08:51:29 51°19.629 2°55.435 7.812473 3.473867 33.428607 31.141554
2004-03-24 08:51:34 51°19.635 2°55.461 7.813007 3.473129 33.419119 35.759742
2004-03-24 08:51:39 51°19.641 2°55.486 7.808738 3.471022 33.393392 31.849452
2004-03-24 08:51:44 51°19.646 2°55.511 7.81616 3.470285 33.384709 29.557212
2004-03-24 08:51:48 51°19.651 2°55.532 7.813638 3.469442 33.3733 30.973007
2004-03-24 08:51:54 51°19.658 2°55.562 7.813638 3.469442 33.3733 30.973007
2004-03-24 08:51:59 51°19.664 2°55.587 7.813541 3.469126 33.36752 34.141691
2004-03-24 08:52:04 51°19.67 2°55.612 7.816112 3.467124 33.346935 32.961862
2004-03-24 08:52:08 51°19.674 2°55.632 7.819605 3.466071 33.33488 38.15311
2004-03-24 08:52:14 51°19.682 2°55.662 7.817519 3.464701 33.317052 34.377657
2004-03-24 08:52:19 51°19.688 2°55.686 7.81553 3.46291 33.299522 32.624768
2004-03-24 08:52:24 51°19.694 2°55.712 7.81553 3.46291 33.299522 32.624768
2004-03-24 08:52:28 51°19.699 2°55.732 7.819265 3.461857 33.286672 38.591332
2004-03-24 08:52:34 51°19.706 2°55.762 7.813783 3.460593 33.270776 37.883435
2004-03-24 08:52:38 51°19.71 2°55.782 7.81456 3.459223 33.253759 30.467366
2004-03-24 08:52:44 51°19.716 2°55.813 7.813395 3.457432 33.236233 38.051982
2004-03-24 08:52:49 51°19.721 2°55.838 7.814802 3.456379 33.224189 40.040836
2004-03-24 08:52:54 51°19.726 2°55.864 7.814802 3.456379 33.224189 40.040836
2004-03-24 08:52:59 51°19.732 2°55.89 7.810048 3.454272 33.20329 33.669759
2004-03-24 08:53:04 51°19.736 2°55.916 7.813007 3.452586 33.186094 33.838306
2004-03-24 08:53:09 51°19.742 2°55.941 7.809563 3.451427 33.172928 35.557486
2004-03-24 08:53:14 51°19.747 2°55.966 7.811212 3.450058 33.159902 31.647195
2004-03-24 08:53:18 51°19.751 2°55.987 7.807234 3.448794 33.149591 32.220255
2004-03-24 08:53:24 51°19.758 2°56.017 7.807234 3.448794 33.149591 32.220255
2004-03-24 08:53:29 51°19.763 2°56.043 7.807428 3.447635 33.138017 34.411366
2004-03-24 08:53:34 51°19.767 2°56.069 7.802333 3.446897 33.131736 33.197828
2004-03-24 08:53:38 51°19.772 2°56.089 7.799422 3.446897 33.130941 31.815742
2004-03-24 08:53:44 51°19.777 2°56.12 7.807185 3.445528 33.117914 35.490067
2004-03-24 08:53:48 51°19.782 2°56.14 7.794666 3.44458 33.107794 36.197965
2004-03-24 08:53:54 51°19.787 2°56.171 7.795346 3.442684 33.089145 29.085281
2004-03-24 08:54:00 51°19.794 2°56.202 7.795346 3.442684 33.089145 29.085281
2004-03-24 08:54:04 51°19.798 2°56.222 7.79389 3.442052 33.083193 39.26552
2004-03-24 08:54:08 51°19.802 2°56.243 7.791318 3.440787 33.068908 39.400358
2004-03-24 08:54:14 51°19.808 2°56.273 7.786998 3.438259 33.045101 30.096563
2004-03-24 08:54:18 51°19.813 2°56.293 7.785785 3.43689 33.032866 32.017999
2004-03-24 08:54:24 51°19.818 2°56.325 7.785785 3.43689 33.032866 32.017999
2004-03-24 08:54:29 51°19.824 2°56.35 7.790396 3.434994 33.015009 31.849452
2004-03-24 08:54:34 51°19.829 2°56.375 7.782145 3.432781 32.99457 41.658888
2004-03-24 08:54:40 51°19.835 2°56.406 7.780786 3.431412 32.983124 36.535059